Time,TemperatureF,DewpointF,PressureIn,WindDirection,WindDirectionDegrees,WindSpeedMPH,WindSpeedGustMPH,Humidity,HourlyPrecipIn,Conditions,Clouds,dailyrainin,SoftwareType,DateUTC
2013-01-11 00:01:00,34.1,32.8,29.90,SE,134,3.0,5.0,95,0.06,,,0.30,Wunderground v.1.15,2013-01-11 06:01:00,
2013-01-11 00:03:00,34.1,33.1,29.90,SE,126,3.0,6.0,96,0.05,,,0.30,Wunderground v.1.15,2013-01-11 06:03:00,
2013-01-11 00:04:00,34.1,33.1,29.90,SE,128,3.0,6.0,96,0.04,,,0.30,Wunderground v.1.15,2013-01-11 06:04:00,
2013-01-11 00:06:00,34.1,33.1,29.90,SE,132,3.0,4.0,96,0.04,,,0.30,Wunderground v.1.15,2013-01-11 06:06:00,
2013-01-11 00:08:00,34.1,33.1,29.89,East,90,3.0,4.0,96,0.00,,,0.30,Wunderground v.1.15,2013-01-11 06:08:00,
2013-01-11 00:10:00,34.1,33.1,29.89,ESE,115,2.0,4.0,96,0.00,,,0.30,Wunderground v.1.15,2013-01-11 06:10:00,
2013-01-11 00:14:00,34.1,33.1,29.89,ESE,111,2.0,4.0,96,0.00,,,0.31,Wunderground v.1.15,2013-01-11 06:14:00,
2013-01-11 00:15:00,34.1,33.1,29.88,ESE,113,2.0,5.0,96,0.00,,,0.31,Wunderground v.1.15,2013-01-11 06:15:00,
2013-01-11 00:17:00,34.1,33.1,29.88,SSE,148,2.0,4.0,96,0.00,,,0.31,Wunderground v.1.15,2013-01-11 06:17:00,
2013-01-11 00:23:00,34.0,32.7,29.89,SE,131,4.0,5.0,95,0.00,,,0.00,Wunderground v.1.15,2013-01-11 06:23:00,
2013-01-11 00:24:00,34.0,32.7,29.88,SE,136,4.0,5.0,95,0.00,,,0.00,Wunderground v.1.15,2013-01-11 06:24:00,
2013-01-11 00:27:00,34.0,32.7,29.88,SE,128,4.0,6.0,95,0.04,,,0.01,Wunderground v.1.15,2013-01-11 06:27:00,
2013-01-11 00:29:00,34.0,32.7,29.87,SE,126,5.0,9.0,95,0.04,,,0.01,Wunderground v.1.15,2013-01-11 06:29:00,
2013-01-11 00:30:00,34.0,32.7,29.87,SE,131,5.0,9.0,95,0.04,,,0.01,Wunderground v.1.15,2013-01-11 06:30:00,
2013-01-11 00:33:00,34.0,33.0,29.86,East,82,5.0,-999.0,95,-99.99,,,0.01,weatherlink.com 1.10,2013-01-11 06:33:00,
2013-01-11 00:34:00,34.0,32.7,29.86,ESE,109,5.0,9.0,95,0.04,,,0.01,Wunderground v.1.15,2013-01-11 06:34:00,
2013-01-11 00:36:00,34.0,32.7,29.86,ESE,115,5.0,9.0,95,0.04,,,0.01,Wunderground v.1.15,2013-01-11 06:36:00,
2013-01-11 00:41:00,34.0,32.7,29.85,SE,130,4.0,9.0,95,0.04,,,0.01,Wunderground v.1.15,2013-01-11 06:41:00,
2013-01-11 00:42:00,34.0,32.7,29.85,ESE,107,4.0,9.0,95,0.04,,,0.01,Wunderground v.1.15,2013-01-11 06:42:00,
2013-01-11 00:43:00,34.0,32.7,29.85,ESE,117,4.0,9.0,95,0.00,,,0.01,Wunderground v.1.15,2013-01-11 06:43:00,
2013-01-11 00:44:00,34.0,32.7,29.84,ESE,108,4.0,9.0,95,0.00,,,0.01,Wunderground v.1.15,2013-01-11 06:44:00,
2013-01-11 00:47:00,34.0,33.0,29.83,ESE,114,5.0,-999.0,95,-99.99,,,0.01,weatherlink.com 1.10,2013-01-11 06:47:00,
2013-01-11 00:51:00,34.0,32.7,29.82,ESE,121,5.0,9.0,95,0.00,,,0.01,Wunderground v.1.15,2013-01-11 06:51:00,
2013-01-11 00:52:00,34.0,33.0,29.81,ESE,111,6.0,9.0,96,0.00,,,0.02,Wunderground v.1.15,2013-01-11 06:52:00,
2013-01-11 00:55:00,34.0,33.0,29.81,East,80,6.0,9.0,96,0.00,,,0.02,Wunderground v.1.15,2013-01-11 06:55:00,
2013-01-11 00:57:00,34.0,33.0,29.81,ESE,116,6.0,7.0,96,0.00,,,0.02,Wunderground v.1.15,2013-01-11 06:57:00,
2013-01-11 00:58:00,34.0,33.0,29.81,SE,126,6.0,7.0,96,0.00,,,0.02,Wunderground v.1.15,2013-01-11 06:58:00,
2013-01-11 01:02:00,34.1,33.1,29.82,South,175,6.0,7.0,96,0.00,,,0.02,Wunderground v.1.15,2013-01-11 07:02:00,
2013-01-11 01:05:00,34.1,33.1,29.83,South,171,5.0,7.0,96,0.00,,,0.02,Wunderground v.1.15,2013-01-11 07:05:00,
2013-01-11 01:06:00,34.1,33.1,29.83,SSE,158,5.0,5.0,96,0.00,,,0.02,Wunderground v.1.15,2013-01-11 07:06:00,
2013-01-11 01:07:00,34.1,33.1,29.83,ESE,122,5.0,5.0,96,0.00,,,0.02,Wunderground v.1.15,2013-01-11 07:07:00,
2013-01-11 01:09:00,34.1,33.1,29.82,SE,133,4.0,5.0,96,0.00,,,0.02,Wunderground v.1.15,2013-01-11 07:09:00,
2013-01-11 01:12:00,34.1,33.1,29.83,ESE,115,4.0,6.0,96,0.00,,,0.02,Wunderground v.1.15,2013-01-11 07:12:00,
2013-01-11 01:14:00,34.1,33.1,29.83,ESE,115,4.0,6.0,96,0.00,,,0.02,Wunderground v.1.15,2013-01-11 07:14:00,
2013-01-11 01:15:00,34.1,33.1,29.83,ESE,121,4.0,6.0,96,0.00,,,0.02,Wunderground v.1.15,2013-01-11 07:15:00,
2013-01-11 01:16:00,34.1,33.1,29.83,East,100,4.0,4.0,96,0.00,,,0.02,Wunderground v.1.15,2013-01-11 07:16:00,
2013-01-11 01:20:00,34.2,33.2,29.84,SSW,192,4.0,4.0,96,0.00,,,0.02,Wunderground v.1.15,2013-01-11 07:20:00,
2013-01-11 01:22:00,34.2,33.2,29.85,SSW,192,3.0,4.0,96,0.00,,,0.02,Wunderground v.1.15,2013-01-11 07:22:00,
2013-01-11 01:23:00,34.2,33.2,29.85,SSW,192,3.0,4.0,96,0.00,,,0.02,Wunderground v.1.15,2013-01-11 07:23:00,
2013-01-11 01:25:00,34.2,33.2,29.85,SSW,192,2.0,4.0,96,0.00,,,0.02,Wunderground v.1.15,2013-01-11 07:25:00,
2013-01-11 01:27:00,34.3,33.3,29.85,SSW,192,2.0,13.0,96,0.00,,,0.02,Wunderground v.1.15,2013-01-11 07:27:00,
2013-01-11 01:30:00,34.2,33.2,29.86,SSW,193,1.0,13.0,96,0.00,,,0.02,Wunderground v.1.15,2013-01-11 07:30:00,
2013-01-11 01:33:00,34.3,33.3,29.86,SSW,199,1.0,13.0,96,0.00,,,0.02,Wunderground v.1.15,2013-01-11 07:33:00,
2013-01-11 01:34:00,34.3,33.3,29.86,SSW,198,1.0,13.0,96,0.00,,,0.02,Wunderground v.1.15,2013-01-11 07:34:00,
2013-01-11 01:35:00,34.3,33.3,29.86,South,180,2.0,13.0,96,0.00,,,0.02,Wunderground v.1.15,2013-01-11 07:35:00,
2013-01-11 01:39:00,34.4,33.4,29.86,South,175,2.0,13.0,96,0.00,,,0.02,Wunderground v.1.15,2013-01-11 07:39:00,
2013-01-11 01:40:00,34.4,33.4,29.86,South,175,2.0,13.0,96,0.00,,,0.02,Wunderground v.1.15,2013-01-11 07:40:00,
2013-01-11 01:41:00,34.4,33.4,29.86,South,175,2.0,13.0,96,0.00,,,0.02,Wunderground v.1.15,2013-01-11 07:41:00,
2013-01-11 01:42:00,34.3,33.3,29.86,South,175,2.0,13.0,96,0.00,,,0.02,Wunderground v.1.15,2013-01-11 07:42:00,
2013-01-11 01:45:00,34.3,33.3,29.86,South,175,1.0,13.0,96,0.00,,,0.02,Wunderground v.1.15,2013-01-11 07:45:00,
2013-01-11 01:47:00,34.3,33.0,29.86,South,175,0.0,-999.0,96,-99.99,,,0.02,weatherlink.com 1.10,2013-01-11 07:47:00,
2013-01-11 01:48:00,34.3,33.3,29.85,South,175,0.0,13.0,96,0.00,,,0.02,Wunderground v.1.15,2013-01-11 07:48:00,
2013-01-11 01:53:00,34.4,33.4,29.86,South,175,0.0,13.0,96,0.00,,,0.02,Wunderground v.1.15,2013-01-11 07:53:00,
2013-01-11 01:54:00,34.4,33.4,29.86,South,175,0.0,13.0,96,0.00,,,0.02,Wunderground v.1.15,2013-01-11 07:54:00,
2013-01-11 01:58:00,34.4,33.4,29.86,South,175,0.0,0.0,96,0.00,,,0.02,Wunderground v.1.15,2013-01-11 07:58:00,
2013-01-11 02:00:00,34.4,33.4,29.86,South,175,0.0,0.0,96,0.00,,,0.02,Wunderground v.1.15,2013-01-11 08:00:00,
2013-01-11 02:02:00,34.4,33.4,29.85,South,175,0.0,0.0,96,0.00,,,0.02,Wunderground v.1.15,2013-01-11 08:02:00,
2013-01-11 02:05:00,34.4,33.4,29.85,South,175,0.0,0.0,96,0.00,,,0.02,Wunderground v.1.15,2013-01-11 08:05:00,
2013-01-11 02:06:00,34.4,33.4,29.85,South,175,0.0,0.0,96,0.00,,,0.02,Wunderground v.1.15,2013-01-11 08:06:00,
2013-01-11 02:07:00,34.4,33.4,29.85,South,175,0.0,0.0,96,0.00,,,0.02,Wunderground v.1.15,2013-01-11 08:07:00,
2013-01-11 02:08:00,34.4,33.4,29.85,South,175,0.0,0.0,96,0.00,,,0.02,Wunderground v.1.15,2013-01-11 08:08:00,
2013-01-11 02:11:00,34.4,33.4,29.85,South,175,0.0,0.0,96,0.00,,,0.02,Wunderground v.1.15,2013-01-11 08:11:00,
2013-01-11 02:13:00,34.4,33.4,29.84,South,174,0.0,2.0,96,0.00,,,0.02,Wunderground v.1.15,2013-01-11 08:13:00,
2013-01-11 02:17:00,34.3,33.3,29.83,ENE,69,0.0,2.0,96,0.00,,,0.02,Wunderground v.1.15,2013-01-11 08:17:00,
2013-01-11 02:18:00,34.3,33.0,29.83,ENE,69,0.0,-999.0,96,-99.99,,,0.02,weatherlink.com 1.10,2013-01-11 08:18:00,
2013-01-11 02:24:00,34.2,33.2,29.83,ENE,69,1.0,2.0,96,0.00,,,0.02,Wunderground v.1.15,2013-01-11 08:24:00,
2013-01-11 02:25:00,34.2,33.2,29.83,ENE,69,1.0,2.0,96,0.00,,,0.02,Wunderground v.1.15,2013-01-11 08:25:00,
2013-01-11 02:26:00,34.2,33.2,29.82,ENE,69,1.0,1.0,96,0.00,,,0.02,Wunderground v.1.15,2013-01-11 08:26:00,
2013-01-11 02:28:00,34.3,33.3,29.83,ENE,69,1.0,6.0,96,0.00,,,0.02,Wunderground v.1.15,2013-01-11 08:28:00,
2013-01-11 02:33:00,34.3,33.0,29.83,ENE,69,0.0,-999.0,96,-99.99,,,0.02,weatherlink.com 1.10,2013-01-11 08:33:00,
2013-01-11 02:34:00,34.3,33.3,29.83,ENE,69,1.0,6.0,96,0.00,,,0.02,Wunderground v.1.15,2013-01-11 08:34:00,
2013-01-11 02:37:00,34.3,33.3,29.83,ENE,69,1.0,6.0,96,0.00,,,0.02,Wunderground v.1.15,2013-01-11 08:37:00,
2013-01-11 02:39:00,34.4,33.4,29.83,ENE,69,0.0,6.0,96,0.00,,,0.02,Wunderground v.1.15,2013-01-11 08:39:00,
2013-01-11 02:41:00,34.4,33.4,29.83,ENE,69,0.0,6.0,96,0.00,,,0.02,Wunderground v.1.15,2013-01-11 08:41:00,
2013-01-11 02:44:00,34.4,33.4,29.82,ENE,69,0.0,6.0,96,0.00,,,0.02,Wunderground v.1.15,2013-01-11 08:44:00,
2013-01-11 02:47:00,34.3,33.3,29.82,ENE,69,0.0,6.0,96,0.00,,,0.02,Wunderground v.1.15,2013-01-11 08:47:00,
2013-01-11 02:49:00,34.3,33.0,29.82,ENE,69,1.0,-999.0,96,-99.99,,,0.02,weatherlink.com 1.10,2013-01-11 08:49:00,
2013-01-11 02:52:00,34.3,33.3,29.81,ENE,69,1.0,6.0,96,0.00,,,0.02,Wunderground v.1.15,2013-01-11 08:52:00,
2013-01-11 02:55:00,34.3,33.3,29.81,ENE,69,1.0,6.0,96,0.00,,,0.02,Wunderground v.1.15,2013-01-11 08:55:00,
2013-01-11 02:58:00,34.3,33.3,29.81,ENE,69,1.0,3.0,96,0.00,,,0.02,Wunderground v.1.15,2013-01-11 08:58:00,
2013-01-11 02:59:00,34.3,33.3,29.80,ENE,69,2.0,3.0,96,0.00,,,0.02,Wunderground v.1.15,2013-01-11 08:59:00,
2013-01-11 03:00:00,34.3,33.3,29.80,ENE,69,2.0,3.0,96,0.00,,,0.02,Wunderground v.1.15,2013-01-11 09:00:00,
2013-01-11 03:04:00,34.2,33.2,29.80,ENE,69,2.0,3.0,96,0.00,,,0.02,Wunderground v.1.15,2013-01-11 09:04:00,
2013-01-11 03:05:00,34.3,33.3,29.80,ENE,69,2.0,3.0,96,0.00,,,0.02,Wunderground v.1.15,2013-01-11 09:05:00,
2013-01-11 03:06:00,34.2,33.2,29.80,ENE,67,2.0,2.0,96,0.00,,,0.02,Wunderground v.1.15,2013-01-11 09:06:00,
2013-01-11 03:08:00,34.2,33.2,29.79,ENE,70,1.0,2.0,96,0.00,,,0.02,Wunderground v.1.15,2013-01-11 09:08:00,
2013-01-11 03:12:00,34.2,33.2,29.79,ENE,70,1.0,2.0,96,0.00,,,0.02,Wunderground v.1.15,2013-01-11 09:12:00,
2013-01-11 03:13:00,34.2,33.2,29.79,ENE,70,1.0,2.0,96,0.00,,,0.02,Wunderground v.1.15,2013-01-11 09:13:00,
2013-01-11 03:16:00,34.2,33.2,29.78,NE,49,2.0,3.0,96,0.00,,,0.02,Wunderground v.1.15,2013-01-11 09:16:00,
2013-01-11 03:18:00,34.1,33.1,29.78,NE,49,2.0,3.0,96,0.00,,,0.02,Wunderground v.1.15,2013-01-11 09:18:00,
2013-01-11 03:20:00,34.1,33.1,29.78,NE,49,2.0,4.0,96,0.00,,,0.02,Wunderground v.1.15,2013-01-11 09:20:00,
2013-01-11 03:22:00,34.0,33.0,29.78,NE,49,2.0,4.0,96,0.00,,,0.02,Wunderground v.1.15,2013-01-11 09:22:00,
2013-01-11 03:23:00,34.0,33.0,29.78,NE,49,2.0,4.0,96,0.00,,,0.02,Wunderground v.1.15,2013-01-11 09:23:00,
2013-01-11 03:25:00,34.0,33.0,29.78,NE,49,2.0,4.0,96,0.00,,,0.02,Wunderground v.1.15,2013-01-11 09:25:00,
2013-01-11 03:26:00,34.0,33.0,29.78,NE,49,2.0,2.0,96,0.00,,,0.02,Wunderground v.1.15,2013-01-11 09:26:00,
2013-01-11 03:27:00,34.0,33.0,29.78,NE,49,2.0,3.0,96,0.00,,,0.02,Wunderground v.1.15,2013-01-11 09:27:00,
2013-01-11 03:29:00,34.1,33.1,29.77,NE,49,1.0,3.0,96,0.00,,,0.02,Wunderground v.1.15,2013-01-11 09:29:00,
2013-01-11 03:32:00,34.1,33.1,29.77,ENE,61,1.0,4.0,96,0.00,,,0.02,Wunderground v.1.15,2013-01-11 09:32:00,
2013-01-11 03:33:00,34.0,33.0,29.77,ENE,62,2.0,4.0,96,0.00,,,0.02,Wunderground v.1.15,2013-01-11 09:33:00,
2013-01-11 03:37:00,34.1,33.1,29.76,ENE,74,2.0,3.0,96,0.00,,,0.02,Wunderground v.1.15,2013-01-11 09:37:00,
2013-01-11 03:39:00,34.1,33.1,29.76,NE,37,2.0,3.0,96,0.00,,,0.02,Wunderground v.1.15,2013-01-11 09:39:00,
2013-01-11 03:42:00,34.1,33.1,29.76,NE,38,2.0,3.0,96,0.00,,,0.02,Wunderground v.1.15,2013-01-11 09:42:00,
2013-01-11 03:44:00,34.1,33.1,29.76,NE,48,2.0,3.0,96,0.00,,,0.02,Wunderground v.1.15,2013-01-11 09:44:00,
2013-01-11 03:46:00,34.0,33.0,29.75,NE,46,3.0,3.0,96,0.00,,,0.02,Wunderground v.1.15,2013-01-11 09:46:00,
2013-01-11 03:47:00,34.0,33.0,29.75,NE,46,2.0,3.0,96,0.00,,,0.02,Wunderground v.1.15,2013-01-11 09:47:00,
2013-01-11 03:49:00,33.9,32.9,29.74,NE,46,2.0,3.0,96,0.00,,,0.02,Wunderground v.1.15,2013-01-11 09:49:00,
2013-01-11 03:52:00,33.9,32.9,29.74,NE,46,3.0,4.0,96,0.00,,,0.02,Wunderground v.1.15,2013-01-11 09:52:00,
2013-01-11 03:57:00,33.8,33.8,29.73,NE,45,3.0,3.0,100,0.00,,,0.02,Wunderground v.1.15,2013-01-11 09:57:00,
2013-01-11 04:01:00,33.8,32.8,29.73,NE,44,3.0,5.0,96,0.00,,,0.02,Wunderground v.1.15,2013-01-11 10:01:00,
2013-01-11 04:03:00,33.8,33.0,29.73,NE,44,0.0,-999.0,96,-99.99,,,0.02,weatherlink.com 1.10,2013-01-11 10:03:00,
2013-01-11 04:04:00,33.9,32.9,29.73,NE,44,2.0,5.0,96,0.00,,,0.02,Wunderground v.1.15,2013-01-11 10:04:00,
2013-01-11 04:09:00,33.9,32.9,29.74,NE,44,2.0,2.0,96,0.00,,,0.02,Wunderground v.1.15,2013-01-11 10:09:00,
2013-01-11 04:10:00,33.9,32.9,29.74,NE,44,1.0,2.0,96,0.00,,,0.02,Wunderground v.1.15,2013-01-11 10:10:00,
2013-01-11 04:12:00,33.9,32.9,29.75,ESE,106,1.0,2.0,96,0.00,,,0.02,Wunderground v.1.15,2013-01-11 10:12:00,
2013-01-11 04:16:00,33.9,32.9,29.75,ESE,111,1.0,2.0,96,0.00,,,0.02,Wunderground v.1.15,2013-01-11 10:16:00,
2013-01-11 04:17:00,33.9,32.9,29.75,ESE,111,1.0,2.0,96,0.00,,,0.02,Wunderground v.1.15,2013-01-11 10:17:00,
2013-01-11 04:19:00,33.8,34.0,29.75,ESE,121,4.0,-999.0,100,-99.99,,,0.02,weatherlink.com 1.10,2013-01-11 10:19:00,
2013-01-11 04:23:00,33.8,32.8,29.75,SE,136,2.0,5.0,96,0.00,,,0.02,Wunderground v.1.15,2013-01-11 10:23:00,
2013-01-11 04:24:00,33.7,32.7,29.75,SE,136,2.0,5.0,96,0.00,,,0.02,Wunderground v.1.15,2013-01-11 10:24:00,
2013-01-11 04:28:00,33.8,32.8,29.75,SE,136,2.0,6.0,96,0.00,,,0.02,Wunderground v.1.15,2013-01-11 10:28:00,
2013-01-11 04:29:00,33.8,32.8,29.75,SE,136,2.0,6.0,96,0.00,,,0.02,Wunderground v.1.15,2013-01-11 10:29:00,
2013-01-11 04:30:00,33.8,32.8,29.75,SE,136,2.0,6.0,96,0.00,,,0.02,Wunderground v.1.15,2013-01-11 10:30:00,
2013-01-11 04:31:00,33.8,33.8,29.75,SE,136,2.0,6.0,100,0.00,,,0.02,Wunderground v.1.15,2013-01-11 10:31:00,
2013-01-11 04:34:00,33.8,33.8,29.74,ESE,108,1.0,6.0,100,0.00,,,0.02,Wunderground v.1.15,2013-01-11 10:34:00,
2013-01-11 04:37:00,33.9,32.9,29.74,ESE,110,1.0,6.0,96,0.00,,,0.02,Wunderground v.1.15,2013-01-11 10:37:00,
2013-01-11 04:38:00,33.9,32.9,29.74,ESE,118,1.0,6.0,96,0.00,,,0.02,Wunderground v.1.15,2013-01-11 10:38:00,
2013-01-11 04:42:00,33.9,32.9,29.74,East,82,2.0,6.0,96,0.00,,,0.02,Wunderground v.1.15,2013-01-11 10:42:00,
2013-01-11 04:43:00,33.9,32.9,29.74,East,88,2.0,6.0,96,0.00,,,0.02,Wunderground v.1.15,2013-01-11 10:43:00,
2013-01-11 04:46:00,34.0,33.0,29.74,ESE,117,2.0,6.0,96,0.00,,,0.03,Wunderground v.1.15,2013-01-11 10:46:00,
2013-01-11 04:48:00,34.0,33.0,29.73,East,96,5.0,-999.0,96,-99.99,,,0.03,weatherlink.com 1.10,2013-01-11 10:48:00,
2013-01-11 04:49:00,34.0,33.0,29.73,ESE,104,2.0,6.0,96,0.00,,,0.03,Wunderground v.1.15,2013-01-11 10:49:00,
2013-01-11 04:50:00,34.1,33.1,29.73,ENE,71,2.0,6.0,96,0.00,,,0.03,Wunderground v.1.15,2013-01-11 10:50:00,
2013-01-11 04:54:00,34.1,33.1,29.73,ENE,65,2.0,6.0,96,0.00,,,0.03,Wunderground v.1.15,2013-01-11 10:54:00,
2013-01-11 04:55:00,34.1,33.1,29.73,ENE,65,1.0,6.0,96,0.00,,,0.03,Wunderground v.1.15,2013-01-11 10:55:00,
2013-01-11 04:58:00,34.3,33.3,29.73,ENE,65,1.0,1.0,96,0.00,,,0.03,Wunderground v.1.15,2013-01-11 10:58:00,
2013-01-11 04:59:00,34.2,33.2,29.73,ENE,65,1.0,1.0,96,0.00,,,0.03,Wunderground v.1.15,2013-01-11 10:59:00,
2013-01-11 05:00:00,34.3,33.3,29.73,ENE,65,1.0,1.0,96,0.00,,,0.03,Wunderground v.1.15,2013-01-11 11:00:00,
2013-01-11 05:03:00,34.3,33.3,29.73,ENE,65,0.0,1.0,96,0.00,,,0.03,Wunderground v.1.15,2013-01-11 11:03:00,
2013-01-11 05:04:00,34.3,33.3,29.73,ENE,65,0.0,1.0,96,0.00,,,0.03,Wunderground v.1.15,2013-01-11 11:04:00,
2013-01-11 05:06:00,34.4,33.4,29.74,ENE,65,0.0,0.0,96,0.00,,,0.03,Wunderground v.1.15,2013-01-11 11:06:00,
2013-01-11 05:09:00,34.5,33.5,29.74,ENE,65,0.0,0.0,96,0.00,,,0.03,Wunderground v.1.15,2013-01-11 11:09:00,
2013-01-11 05:11:00,34.5,33.5,29.74,ENE,65,0.0,0.0,96,0.00,,,0.03,Wunderground v.1.15,2013-01-11 11:11:00,
2013-01-11 05:12:00,34.5,33.5,29.74,ENE,65,0.0,0.0,96,0.00,,,0.03,Wunderground v.1.15,2013-01-11 11:12:00,
2013-01-11 05:14:00,34.5,33.5,29.74,ENE,65,0.0,0.0,96,0.00,,,0.03,Wunderground v.1.15,2013-01-11 11:14:00,
2013-01-11 05:17:00,34.4,33.4,29.74,ENE,65,0.0,0.0,96,0.00,,,0.03,Wunderground v.1.15,2013-01-11 11:17:00,
2013-01-11 05:18:00,34.4,33.4,29.74,ENE,65,0.0,0.0,96,0.00,,,0.03,Wunderground v.1.15,2013-01-11 11:18:00,
2013-01-11 05:19:00,34.4,33.4,29.74,ENE,65,0.0,0.0,96,0.00,,,0.03,Wunderground v.1.15,2013-01-11 11:19:00,
2013-01-11 05:23:00,34.6,33.6,29.73,ENE,65,0.0,0.0,96,0.00,,,0.03,Wunderground v.1.15,2013-01-11 11:23:00,
2013-01-11 05:24:00,34.6,33.6,29.73,ENE,65,0.0,0.0,96,0.00,,,0.03,Wunderground v.1.15,2013-01-11 11:24:00,
2013-01-11 05:25:00,34.6,33.6,29.73,ENE,65,0.0,1.0,96,0.00,,,0.03,Wunderground v.1.15,2013-01-11 11:25:00,
2013-01-11 05:27:00,34.6,33.6,29.73,ENE,65,0.0,6.0,96,0.00,,,0.03,Wunderground v.1.15,2013-01-11 11:27:00,
2013-01-11 05:28:00,34.6,33.6,29.73,ENE,65,0.0,6.0,96,0.00,,,0.03,Wunderground v.1.15,2013-01-11 11:28:00,
2013-01-11 05:33:00,34.4,33.4,29.73,ENE,65,0.0,6.0,96,0.00,,,0.03,Wunderground v.1.15,2013-01-11 11:33:00,
2013-01-11 05:34:00,34.4,33.4,29.73,ENE,65,0.0,6.0,96,0.00,,,0.03,Wunderground v.1.15,2013-01-11 11:34:00,
2013-01-11 05:36:00,34.5,33.5,29.73,ENE,65,0.0,6.0,96,0.00,,,0.03,Wunderground v.1.15,2013-01-11 11:36:00,
2013-01-11 05:39:00,34.7,33.7,29.73,ENE,65,0.0,6.0,96,0.00,,,0.03,Wunderground v.1.15,2013-01-11 11:39:00,
2013-01-11 05:40:00,34.7,33.7,29.73,ENE,65,0.0,6.0,96,0.00,,,0.03,Wunderground v.1.15,2013-01-11 11:40:00,
2013-01-11 05:42:00,34.7,33.7,29.73,ENE,65,0.0,6.0,96,0.00,,,0.03,Wunderground v.1.15,2013-01-11 11:42:00,
2013-01-11 05:43:00,34.7,33.7,29.73,ENE,65,0.0,6.0,96,0.00,,,0.03,Wunderground v.1.15,2013-01-11 11:43:00,
2013-01-11 05:44:00,34.8,33.8,29.73,ENE,65,0.0,6.0,96,0.00,,,0.03,Wunderground v.1.15,2013-01-11 11:44:00,
2013-01-11 05:46:00,34.9,33.9,29.73,ENE,65,0.0,6.0,96,0.00,,,0.03,Wunderground v.1.15,2013-01-11 11:46:00,
2013-01-11 05:48:00,34.9,33.9,29.74,ENE,65,0.0,6.0,96,0.00,,,0.03,Wunderground v.1.15,2013-01-11 11:48:00,
2013-01-11 05:51:00,34.8,33.8,29.74,ENE,65,0.0,6.0,96,0.00,,,0.03,Wunderground v.1.15,2013-01-11 11:51:00,
2013-01-11 05:52:00,34.8,33.8,29.74,ENE,65,0.0,6.0,96,0.00,,,0.03,Wunderground v.1.15,2013-01-11 11:52:00,
2013-01-11 05:57:00,34.9,33.9,29.74,ENE,65,0.0,0.0,96,0.00,,,0.04,Wunderground v.1.15,2013-01-11 11:57:00,
2013-01-11 05:58:00,35.0,34.0,29.74,ENE,65,0.0,0.0,96,0.00,,,0.04,Wunderground v.1.15,2013-01-11 11:58:00,
2013-01-11 06:02:00,36.2,35.2,29.74,ENE,65,0.0,0.0,96,0.00,,,0.04,Wunderground v.1.15,2013-01-11 12:02:00,
2013-01-11 06:03:00,36.4,35.6,29.73,ENE,65,0.0,0.0,97,0.00,,,0.04,Wunderground v.1.15,2013-01-11 12:03:00,
2013-01-11 06:06:00,36.9,35.9,29.73,ENE,65,0.0,0.0,96,0.00,,,0.04,Wunderground v.1.15,2013-01-11 12:06:00,
2013-01-11 06:09:00,36.8,35.8,29.73,ENE,65,0.0,0.0,96,0.00,,,0.04,Wunderground v.1.15,2013-01-11 12:09:00,
2013-01-11 06:10:00,36.8,35.8,29.73,ENE,65,0.0,0.0,96,0.00,,,0.04,Wunderground v.1.15,2013-01-11 12:10:00,
2013-01-11 06:12:00,36.5,35.5,29.73,ENE,65,0.0,0.0,96,0.00,,,0.04,Wunderground v.1.15,2013-01-11 12:12:00,
2013-01-11 06:16:00,35.7,34.7,29.72,ENE,65,0.0,0.0,96,0.00,,,0.04,Wunderground v.1.15,2013-01-11 12:16:00,
2013-01-11 06:19:00,35.1,34.1,29.72,ENE,65,0.0,1.0,96,0.00,,,0.04,Wunderground v.1.15,2013-01-11 12:19:00,
2013-01-11 06:20:00,35.0,34.0,29.72,ENE,65,0.0,-999.0,96,-99.99,,,0.04,weatherlink.com 1.10,2013-01-11 12:20:00,
2013-01-11 06:24:00,34.6,33.6,29.72,ENE,65,0.0,1.0,96,0.00,,,0.04,Wunderground v.1.15,2013-01-11 12:24:00,
2013-01-11 06:25:00,34.5,33.5,29.72,ENE,65,0.0,1.0,96,0.00,,,0.04,Wunderground v.1.15,2013-01-11 12:25:00,
2013-01-11 06:27:00,34.4,33.4,29.72,ENE,65,0.0,3.0,96,0.00,,,0.05,Wunderground v.1.15,2013-01-11 12:27:00,
2013-01-11 06:28:00,34.3,33.3,29.72,ENE,65,0.0,3.0,96,0.00,,,0.05,Wunderground v.1.15,2013-01-11 12:28:00,
2013-01-11 06:29:00,34.3,33.3,29.72,ENE,65,0.0,3.0,96,0.00,,,0.05,Wunderground v.1.15,2013-01-11 12:29:00,
2013-01-11 06:32:00,34.2,33.2,29.72,East,88,0.0,3.0,96,0.00,,,0.05,Wunderground v.1.15,2013-01-11 12:32:00,
2013-01-11 06:33:00,34.1,33.1,29.72,ESE,106,0.0,4.0,96,0.00,,,0.05,Wunderground v.1.15,2013-01-11 12:33:00,
2013-01-11 06:34:00,34.1,33.1,29.72,ESE,106,0.0,4.0,96,0.00,,,0.05,Wunderground v.1.15,2013-01-11 12:34:00,
2013-01-11 06:35:00,34.1,33.1,29.72,ESE,106,1.0,4.0,96,0.00,,,0.05,Wunderground v.1.15,2013-01-11 12:35:00,
2013-01-11 06:39:00,34.0,33.0,29.72,ESE,106,1.0,3.0,96,0.00,,,0.05,Wunderground v.1.15,2013-01-11 12:39:00,
2013-01-11 06:40:00,34.0,33.0,29.72,ESE,106,1.0,3.0,96,0.00,,,0.05,Wunderground v.1.15,2013-01-11 12:40:00,
2013-01-11 06:42:00,34.0,33.0,29.72,ESE,106,1.0,3.0,96,0.00,,,0.05,Wunderground v.1.15,2013-01-11 12:42:00,
2013-01-11 06:46:00,34.0,33.0,29.72,ESE,106,1.0,1.0,96,0.00,,,0.05,Wunderground v.1.15,2013-01-11 12:46:00,
2013-01-11 06:47:00,34.0,33.0,29.72,ESE,106,1.0,3.0,96,0.00,,,0.05,Wunderground v.1.15,2013-01-11 12:47:00,
2013-01-11 06:50:00,34.1,33.0,29.72,ESE,106,0.0,-999.0,96,-99.99,,,0.05,weatherlink.com 1.10,2013-01-11 12:50:00,
2013-01-11 06:53:00,34.2,33.2,29.72,ESE,106,0.0,3.0,96,0.00,,,0.05,Wunderground v.1.15,2013-01-11 12:53:00,
2013-01-11 06:57:00,34.2,33.2,29.72,ESE,106,0.0,0.0,96,0.00,,,0.05,Wunderground v.1.15,2013-01-11 12:57:00,
2013-01-11 07:02:00,34.1,33.1,29.72,ESE,106,0.0,0.0,96,0.00,,,0.05,Wunderground v.1.15,2013-01-11 13:02:00,
2013-01-11 07:03:00,34.1,33.1,29.72,ESE,106,0.0,0.0,96,0.00,,,0.05,Wunderground v.1.15,2013-01-11 13:03:00,
2013-01-11 07:05:00,34.2,33.2,29.71,ESE,106,0.0,0.0,96,0.00,,,0.05,Wunderground v.1.15,2013-01-11 13:05:00,
2013-01-11 07:08:00,34.2,33.2,29.72,ESE,106,0.0,0.0,96,0.00,,,0.05,Wunderground v.1.15,2013-01-11 13:08:00,
2013-01-11 07:11:00,34.2,33.2,29.72,ESE,106,0.0,0.0,96,0.00,,,0.05,Wunderground v.1.15,2013-01-11 13:11:00,
2013-01-11 07:12:00,34.2,33.2,29.72,ESE,106,0.0,0.0,96,0.00,,,0.05,Wunderground v.1.15,2013-01-11 13:12:00,
2013-01-11 07:13:00,34.2,33.2,29.72,ESE,106,0.0,0.0,96,0.00,,,0.05,Wunderground v.1.15,2013-01-11 13:13:00,
2013-01-11 07:16:00,34.1,33.1,29.72,ESE,106,0.0,0.0,96,0.00,,,0.05,Wunderground v.1.15,2013-01-11 13:16:00,
2013-01-11 07:17:00,34.1,33.1,29.72,ESE,106,0.0,0.0,96,0.00,,,0.05,Wunderground v.1.15,2013-01-11 13:17:00,
2013-01-11 07:18:00,34.1,33.1,29.72,ESE,106,0.0,0.0,96,0.00,,,0.05,Wunderground v.1.15,2013-01-11 13:18:00,
2013-01-11 07:20:00,34.1,33.0,29.72,ESE,106,0.0,-999.0,96,-99.99,,,0.05,weatherlink.com 1.10,2013-01-11 13:20:00,
2013-01-11 07:22:00,34.1,33.1,29.72,ESE,106,0.0,0.0,96,0.00,,,0.05,Wunderground v.1.15,2013-01-11 13:22:00,
2013-01-11 07:23:00,34.1,33.1,29.72,ESE,106,0.0,0.0,96,0.00,,,0.05,Wunderground v.1.15,2013-01-11 13:23:00,
2013-01-11 07:27:00,34.0,33.0,29.73,ESE,106,0.0,4.0,96,0.00,,,0.05,Wunderground v.1.15,2013-01-11 13:27:00,
2013-01-11 07:28:00,34.0,33.0,29.72,ESE,106,0.0,4.0,96,0.00,,,0.05,Wunderground v.1.15,2013-01-11 13:28:00,
2013-01-11 07:33:00,35.7,34.7,29.72,ESE,106,0.0,4.0,96,0.00,,,0.05,Wunderground v.1.15,2013-01-11 13:33:00,
2013-01-11 07:35:00,36.8,36.0,29.72,ESE,106,0.0,-999.0,96,-99.99,,,0.05,weatherlink.com 1.10,2013-01-11 13:35:00,
2013-01-11 07:36:00,37.2,36.4,29.72,ESE,106,0.0,4.0,97,0.00,,,0.05,Wunderground v.1.15,2013-01-11 13:36:00,
2013-01-11 07:38:00,37.3,36.3,29.71,ESE,106,0.0,4.0,96,0.00,,,0.05,Wunderground v.1.15,2013-01-11 13:38:00,
2013-01-11 07:39:00,37.2,36.2,29.71,ESE,106,0.0,4.0,96,0.00,,,0.05,Wunderground v.1.15,2013-01-11 13:39:00,
2013-01-11 07:41:00,36.8,36.0,29.72,ESE,106,0.0,4.0,97,0.00,,,0.05,Wunderground v.1.15,2013-01-11 13:41:00,
2013-01-11 07:45:00,36.1,35.1,29.71,ESE,106,0.0,4.0,96,0.00,,,0.05,Wunderground v.1.15,2013-01-11 13:45:00,
2013-01-11 07:47:00,35.7,34.7,29.71,ESE,106,0.0,4.0,96,0.00,,,0.05,Wunderground v.1.15,2013-01-11 13:47:00,
2013-01-11 07:48:00,35.5,34.7,29.71,ESE,106,0.0,4.0,97,0.00,,,0.05,Wunderground v.1.15,2013-01-11 13:48:00,
2013-01-11 07:51:00,35.0,34.0,29.71,ESE,106,0.0,4.0,96,0.00,,,0.05,Wunderground v.1.15,2013-01-11 13:51:00,
2013-01-11 07:53:00,34.8,34.0,29.71,ESE,106,0.0,4.0,97,0.00,,,0.05,Wunderground v.1.15,2013-01-11 13:53:00,
2013-01-11 07:58:00,34.6,33.6,29.71,ESE,106,0.0,0.0,96,0.00,,,0.05,Wunderground v.1.15,2013-01-11 13:58:00,
2013-01-11 07:59:00,34.6,33.6,29.71,ESE,106,0.0,0.0,96,0.00,,,0.05,Wunderground v.1.15,2013-01-11 13:59:00,
2013-01-11 08:00:00,34.5,33.5,29.71,ESE,106,0.0,0.0,96,0.00,,,0.05,Wunderground v.1.15,2013-01-11 14:00:00,
2013-01-11 08:02:00,34.5,33.5,29.71,ESE,106,0.0,0.0,96,0.00,,,0.05,Wunderground v.1.15,2013-01-11 14:02:00,
2013-01-11 08:04:00,34.4,33.4,29.71,ESE,106,0.0,1.0,96,0.00,,,0.05,Wunderground v.1.15,2013-01-11 14:04:00,
2013-01-11 08:05:00,34.4,33.4,29.71,ESE,106,0.0,2.0,96,0.00,,,0.05,Wunderground v.1.15,2013-01-11 14:05:00,
2013-01-11 08:08:00,34.3,33.3,29.70,ESE,106,1.0,2.0,96,0.00,,,0.05,Wunderground v.1.15,2013-01-11 14:08:00,
2013-01-11 08:09:00,34.3,33.3,29.70,ESE,106,1.0,2.0,96,0.00,,,0.05,Wunderground v.1.15,2013-01-11 14:09:00,
2013-01-11 08:10:00,34.3,33.3,29.70,ESE,106,1.0,2.0,96,0.00,,,0.05,Wunderground v.1.15,2013-01-11 14:10:00,
2013-01-11 08:11:00,34.3,33.3,29.70,ESE,106,1.0,2.0,96,0.00,,,0.05,Wunderground v.1.15,2013-01-11 14:11:00,
2013-01-11 08:15:00,34.4,33.4,29.71,ESE,115,1.0,2.0,96,0.00,,,0.05,Wunderground v.1.15,2013-01-11 14:15:00,
2013-01-11 08:16:00,34.4,33.4,29.71,ESE,115,1.0,1.0,96,0.00,,,0.05,Wunderground v.1.15,2013-01-11 14:16:00,
2013-01-11 08:17:00,34.4,33.4,29.71,ESE,115,1.0,1.0,96,0.00,,,0.05,Wunderground v.1.15,2013-01-11 14:17:00,
2013-01-11 08:20:00,34.5,34.0,29.71,ESE,115,0.0,-999.0,96,-99.99,,,0.05,weatherlink.com 1.10,2013-01-11 14:20:00,
2013-01-11 08:23:00,34.5,33.5,29.70,ESE,115,1.0,1.0,96,0.00,,,0.05,Wunderground v.1.15,2013-01-11 14:23:00,
2013-01-11 08:24:00,34.6,33.6,29.71,ESE,115,1.0,1.0,96,0.00,,,0.05,Wunderground v.1.15,2013-01-11 14:24:00,
2013-01-11 08:28:00,34.6,33.6,29.70,ESE,115,1.0,4.0,96,0.00,,,0.05,Wunderground v.1.15,2013-01-11 14:28:00,
2013-01-11 08:29:00,34.7,33.7,29.70,ESE,115,0.0,4.0,96,0.00,,,0.05,Wunderground v.1.15,2013-01-11 14:29:00,
2013-01-11 08:30:00,34.7,33.7,29.70,ESE,115,0.0,4.0,96,0.00,,,0.05,Wunderground v.1.15,2013-01-11 14:30:00,
2013-01-11 08:34:00,34.8,34.0,29.70,ESE,115,0.0,-999.0,96,-99.99,,,0.05,weatherlink.com 1.10,2013-01-11 14:34:00,
2013-01-11 08:37:00,34.9,33.9,29.70,ESE,115,0.0,4.0,96,0.00,,,0.05,Wunderground v.1.15,2013-01-11 14:37:00,
2013-01-11 08:38:00,34.9,33.9,29.70,ESE,115,1.0,4.0,96,0.00,,,0.05,Wunderground v.1.15,2013-01-11 14:38:00,
2013-01-11 08:40:00,34.8,33.8,29.70,ESE,115,1.0,4.0,96,0.00,,,0.05,Wunderground v.1.15,2013-01-11 14:40:00,
2013-01-11 08:43:00,34.8,33.8,29.70,ESE,115,1.0,5.0,96,0.00,,,0.05,Wunderground v.1.15,2013-01-11 14:43:00,
2013-01-11 08:44:00,34.8,33.8,29.70,ESE,115,2.0,5.0,96,0.00,,,0.05,Wunderground v.1.15,2013-01-11 14:44:00,
2013-01-11 08:45:00,34.8,33.8,29.70,ESE,115,2.0,5.0,96,0.00,,,0.05,Wunderground v.1.15,2013-01-11 14:45:00,
2013-01-11 08:50:00,34.8,34.0,29.69,ESE,115,1.0,-999.0,96,-99.99,,,0.05,weatherlink.com 1.10,2013-01-11 14:50:00,
2013-01-11 08:54:00,34.9,33.9,29.69,ESE,115,1.0,4.0,96,0.00,,,0.05,Wunderground v.1.15,2013-01-11 14:54:00,
2013-01-11 08:55:00,34.9,33.9,29.69,ESE,115,1.0,4.0,96,0.00,,,0.05,Wunderground v.1.15,2013-01-11 14:55:00,
2013-01-11 08:57:00,35.0,34.0,29.69,ESE,115,1.0,1.0,96,0.00,,,0.05,Wunderground v.1.15,2013-01-11 14:57:00,
2013-01-11 09:01:00,35.1,34.1,29.69,ESE,115,1.0,2.0,96,0.00,,,0.05,Wunderground v.1.15,2013-01-11 15:01:00,
2013-01-11 09:03:00,35.1,34.1,29.69,ESE,115,1.0,2.0,96,0.00,,,0.05,Wunderground v.1.15,2013-01-11 15:03:00,
2013-01-11 09:06:00,35.2,34.0,29.69,ESE,115,4.0,-999.0,96,-99.99,,,0.05,weatherlink.com 1.10,2013-01-11 15:06:00,
2013-01-11 09:09:00,35.3,34.3,29.68,ESE,115,2.0,2.0,96,0.00,,,0.05,Wunderground v.1.15,2013-01-11 15:09:00,
2013-01-11 09:11:00,35.4,34.4,29.69,SE,139,1.0,4.0,96,0.00,,,0.05,Wunderground v.1.15,2013-01-11 15:11:00,
2013-01-11 09:12:00,35.4,34.4,29.70,SW,223,1.0,5.0,96,0.00,,,0.05,Wunderground v.1.15,2013-01-11 15:12:00,
2013-01-11 09:13:00,35.5,34.5,29.71,SW,224,1.0,6.0,96,0.00,,,0.05,Wunderground v.1.15,2013-01-11 15:13:00,
2013-01-11 09:17:00,35.5,34.5,29.71,WSW,243,3.0,4.0,96,0.00,,,0.05,Wunderground v.1.15,2013-01-11 15:17:00,
2013-01-11 09:18:00,35.4,34.4,29.71,WSW,243,3.0,4.0,96,0.00,,,0.05,Wunderground v.1.15,2013-01-11 15:18:00,
2013-01-11 09:20:00,35.4,34.0,29.71,WSW,243,4.0,-999.0,96,-99.99,,,0.05,weatherlink.com 1.10,2013-01-11 15:20:00,
2013-01-11 09:23:00,35.4,34.4,29.70,WSW,243,4.0,4.0,96,0.00,,,0.05,Wunderground v.1.15,2013-01-11 15:23:00,
2013-01-11 09:24:00,35.3,34.3,29.70,WSW,243,3.0,4.0,96,0.00,,,0.05,Wunderground v.1.15,2013-01-11 15:24:00,
2013-01-11 09:28:00,35.4,34.4,29.70,WSW,243,2.0,6.0,96,0.00,,,0.05,Wunderground v.1.15,2013-01-11 15:28:00,
2013-01-11 09:31:00,35.5,34.5,29.71,WSW,243,2.0,6.0,96,0.00,,,0.05,Wunderground v.1.15,2013-01-11 15:31:00,
2013-01-11 09:33:00,35.6,34.6,29.71,SW,230,2.0,6.0,96,0.00,,,0.05,Wunderground v.1.15,2013-01-11 15:33:00,
2013-01-11 09:34:00,35.6,34.6,29.71,SW,230,2.0,6.0,96,0.00,,,0.05,Wunderground v.1.15,2013-01-11 15:34:00,
2013-01-11 09:35:00,35.5,34.5,29.72,SW,235,2.0,6.0,96,0.00,,,0.05,Wunderground v.1.15,2013-01-11 15:35:00,
2013-01-11 09:38:00,35.5,34.5,29.71,WSW,249,2.0,6.0,96,0.00,,,0.05,Wunderground v.1.15,2013-01-11 15:38:00,
2013-01-11 09:41:00,35.5,34.5,29.71,WSW,248,2.0,6.0,96,0.00,,,0.05,Wunderground v.1.15,2013-01-11 15:41:00,
2013-01-11 09:44:00,35.5,34.5,29.71,WSW,246,3.0,6.0,96,0.00,,,0.05,Wunderground v.1.15,2013-01-11 15:44:00,
2013-01-11 09:47:00,35.6,34.6,29.71,SW,232,2.0,6.0,96,0.00,,,0.05,Wunderground v.1.15,2013-01-11 15:47:00,
2013-01-11 09:49:00,35.7,34.7,29.71,SW,232,3.0,6.0,96,0.00,,,0.05,Wunderground v.1.15,2013-01-11 15:49:00,
2013-01-11 09:50:00,35.7,34.7,29.72,SW,236,3.0,6.0,96,0.00,,,0.05,Wunderground v.1.15,2013-01-11 15:50:00,
2013-01-11 09:52:00,35.7,34.7,29.72,SW,234,3.0,6.0,96,0.00,,,0.05,Wunderground v.1.15,2013-01-11 15:52:00,
2013-01-11 09:55:00,35.7,34.7,29.71,SW,235,4.0,6.0,96,0.00,,,0.05,Wunderground v.1.15,2013-01-11 15:55:00,
2013-01-11 09:57:00,35.8,34.8,29.72,SW,230,4.0,4.0,96,0.00,,,0.05,Wunderground v.1.15,2013-01-11 15:57:00,
2013-01-11 09:58:00,35.8,34.8,29.72,SW,235,4.0,4.0,96,0.00,,,0.05,Wunderground v.1.15,2013-01-11 15:58:00,
2013-01-11 09:59:00,35.9,34.9,29.72,SW,236,4.0,4.0,96,0.00,,,0.05,Wunderground v.1.15,2013-01-11 15:59:00,
2013-01-11 10:02:00,36.0,35.0,29.71,SW,234,4.0,4.0,96,0.00,,,0.05,Wunderground v.1.15,2013-01-11 16:02:00,
2013-01-11 10:03:00,36.0,35.0,29.71,SW,234,3.0,4.0,96,0.00,,,0.05,Wunderground v.1.15,2013-01-11 16:03:00,
2013-01-11 10:05:00,36.1,35.0,29.71,SW,234,3.0,-999.0,96,-99.99,,,0.05,weatherlink.com 1.10,2013-01-11 16:05:00,
2013-01-11 10:09:00,36.5,35.7,29.71,SW,235,2.0,5.0,97,0.00,,,0.05,Wunderground v.1.15,2013-01-11 16:09:00,
2013-01-11 10:11:00,36.7,35.9,29.70,SW,235,2.0,5.0,97,0.00,,,0.05,Wunderground v.1.15,2013-01-11 16:11:00,
2013-01-11 10:12:00,36.8,35.8,29.70,SW,235,2.0,5.0,96,0.00,,,0.05,Wunderground v.1.15,2013-01-11 16:12:00,
2013-01-11 10:13:00,36.8,35.8,29.70,SW,235,2.0,5.0,96,0.00,,,0.05,Wunderground v.1.15,2013-01-11 16:13:00,
2013-01-11 10:18:00,37.3,36.3,29.70,SW,235,1.0,1.0,96,0.00,,,0.05,Wunderground v.1.15,2013-01-11 16:18:00,
2013-01-11 10:19:00,37.4,36.4,29.69,SW,231,1.0,2.0,96,0.00,,,0.05,Wunderground v.1.15,2013-01-11 16:19:00,
2013-01-11 10:20:00,37.5,36.5,29.69,SW,227,0.0,2.0,96,0.00,,,0.05,Wunderground v.1.15,2013-01-11 16:20:00,
2013-01-11 10:24:00,37.7,36.9,29.69,SW,227,0.0,2.0,97,0.00,,,0.05,Wunderground v.1.15,2013-01-11 16:24:00,
2013-01-11 10:25:00,37.8,37.0,29.69,SW,227,0.0,2.0,97,0.00,,,0.05,Wunderground v.1.15,2013-01-11 16:25:00,
2013-01-11 10:26:00,37.8,37.0,29.69,SW,227,0.0,0.0,97,0.00,,,0.05,Wunderground v.1.15,2013-01-11 16:26:00,
2013-01-11 10:30:00,37.7,36.9,29.69,SW,227,1.0,7.0,97,0.00,,,0.05,Wunderground v.1.15,2013-01-11 16:30:00,
2013-01-11 10:31:00,37.7,36.9,29.69,SW,227,1.0,7.0,97,0.00,,,0.05,Wunderground v.1.15,2013-01-11 16:31:00,
2013-01-11 10:32:00,37.7,36.9,29.69,SW,227,1.0,7.0,97,0.00,,,0.05,Wunderground v.1.15,2013-01-11 16:32:00,
2013-01-11 10:34:00,37.7,36.9,29.69,South,191,1.0,7.0,97,0.00,,,0.05,Wunderground v.1.15,2013-01-11 16:34:00,
2013-01-11 10:37:00,37.7,36.9,29.70,SSW,207,2.0,7.0,97,0.00,,,0.05,Wunderground v.1.15,2013-01-11 16:37:00,
2013-01-11 10:38:00,37.7,36.9,29.69,SSW,207,2.0,7.0,97,0.00,,,0.05,Wunderground v.1.15,2013-01-11 16:38:00,
2013-01-11 10:43:00,37.8,37.0,29.70,SSW,210,2.0,7.0,97,0.00,,,0.05,Wunderground v.1.15,2013-01-11 16:43:00,
2013-01-11 10:44:00,37.8,37.0,29.70,South,187,2.0,7.0,97,0.00,,,0.05,Wunderground v.1.15,2013-01-11 16:44:00,
2013-01-11 10:46:00,37.8,37.0,29.70,SSW,208,2.0,7.0,97,0.00,,,0.05,Wunderground v.1.15,2013-01-11 16:46:00,
2013-01-11 10:49:00,37.8,37.0,29.70,SSW,207,3.0,7.0,97,0.00,,,0.05,Wunderground v.1.15,2013-01-11 16:49:00,
2013-01-11 10:51:00,37.9,37.0,29.70,SSW,211,4.0,-999.0,97,-99.99,,,0.05,weatherlink.com 1.10,2013-01-11 16:51:00,
2013-01-11 10:54:00,37.9,37.1,29.70,SW,222,3.0,7.0,97,0.00,,,0.05,Wunderground v.1.15,2013-01-11 16:54:00,
2013-01-11 10:55:00,37.9,37.1,29.70,WSW,246,3.0,7.0,97,0.00,,,0.05,Wunderground v.1.15,2013-01-11 16:55:00,
2013-01-11 10:57:00,37.9,37.1,29.70,WSW,248,3.0,5.0,97,0.00,,,0.05,Wunderground v.1.15,2013-01-11 16:57:00,
2013-01-11 11:00:00,37.8,37.0,29.70,WSW,243,4.0,5.0,97,0.00,,,0.05,Wunderground v.1.15,2013-01-11 17:00:00,
2013-01-11 11:01:00,37.8,37.0,29.70,WSW,245,4.0,5.0,97,0.00,,,0.05,Wunderground v.1.15,2013-01-11 17:01:00,
2013-01-11 11:04:00,37.8,37.0,29.70,SSW,213,4.0,5.0,97,0.00,,,0.05,Wunderground v.1.15,2013-01-11 17:04:00,
2013-01-11 11:06:00,37.7,36.9,29.70,SW,216,3.0,3.0,97,0.00,,,0.05,Wunderground v.1.15,2013-01-11 17:06:00,
2013-01-11 11:07:00,37.7,36.9,29.70,SW,235,3.0,5.0,97,0.00,,,0.05,Wunderground v.1.15,2013-01-11 17:07:00,
2013-01-11 11:08:00,37.7,36.9,29.70,SW,226,3.0,5.0,97,0.00,,,0.05,Wunderground v.1.15,2013-01-11 17:08:00,
2013-01-11 11:11:00,37.7,36.9,29.70,WSW,238,3.0,5.0,97,0.00,,,0.05,Wunderground v.1.15,2013-01-11 17:11:00,
2013-01-11 11:13:00,37.6,36.8,29.70,SW,235,3.0,5.0,97,0.00,,,0.05,Wunderground v.1.15,2013-01-11 17:13:00,
2013-01-11 11:15:00,37.6,36.8,29.70,WSW,250,3.0,5.0,97,0.00,,,0.05,Wunderground v.1.15,2013-01-11 17:15:00,
2013-01-11 11:18:00,37.5,36.5,29.70,SW,229,3.0,4.0,96,0.00,,,0.05,Wunderground v.1.15,2013-01-11 17:18:00,
2013-01-11 11:19:00,37.5,36.5,29.70,SSW,196,3.0,4.0,96,0.00,,,0.05,Wunderground v.1.15,2013-01-11 17:19:00,
2013-01-11 11:21:00,37.5,37.0,29.69,SW,225,2.0,-999.0,96,-99.99,,,0.05,weatherlink.com 1.10,2013-01-11 17:21:00,
2013-01-11 11:24:00,37.5,36.5,29.69,SW,225,3.0,4.0,96,0.00,,,0.05,Wunderground v.1.15,2013-01-11 17:24:00,
2013-01-11 11:26:00,37.4,36.4,29.69,SW,225,3.0,3.0,96,0.00,,,0.05,Wunderground v.1.15,2013-01-11 17:26:00,
2013-01-11 11:30:00,37.6,36.8,29.69,SW,225,2.0,8.0,97,0.00,,,0.05,Wunderground v.1.15,2013-01-11 17:30:00,
2013-01-11 11:31:00,37.6,36.8,29.69,SW,225,1.0,8.0,97,0.00,,,0.05,Wunderground v.1.15,2013-01-11 17:31:00,
2013-01-11 11:33:00,37.7,36.9,29.69,SW,225,1.0,8.0,97,0.00,,,0.05,Wunderground v.1.15,2013-01-11 17:33:00,
2013-01-11 11:37:00,37.8,37.0,29.69,SW,225,1.0,8.0,97,0.00,,,0.05,Wunderground v.1.15,2013-01-11 17:37:00,
2013-01-11 11:39:00,37.9,37.1,29.68,SW,225,1.0,8.0,97,0.00,,,0.05,Wunderground v.1.15,2013-01-11 17:39:00,
2013-01-11 11:41:00,38.0,37.0,29.68,SW,225,1.0,8.0,96,0.00,,,0.05,Wunderground v.1.15,2013-01-11 17:41:00,
2013-01-11 11:42:00,38.0,37.0,29.68,SW,225,1.0,8.0,96,0.00,,,0.05,Wunderground v.1.15,2013-01-11 17:42:00,
2013-01-11 11:45:00,38.2,37.2,29.68,SW,225,1.0,8.0,96,0.00,,,0.05,Wunderground v.1.15,2013-01-11 17:45:00,
2013-01-11 11:47:00,38.2,37.4,29.68,SSW,195,1.0,2.0,97,0.00,,,0.05,Wunderground v.1.15,2013-01-11 17:47:00,
2013-01-11 11:50:00,38.3,37.5,29.68,SSW,199,2.0,8.0,97,0.00,,,0.05,Wunderground v.1.15,2013-01-11 17:50:00,
2013-01-11 11:51:00,38.4,38.0,29.68,South,185,1.0,-999.0,97,-99.99,,,0.05,weatherlink.com 1.10,2013-01-11 17:51:00,
2013-01-11 11:52:00,38.4,37.6,29.68,SSW,198,2.0,8.0,97,0.00,,,0.05,Wunderground v.1.15,2013-01-11 17:52:00,
2013-01-11 11:57:00,38.6,37.6,29.67,South,190,2.0,6.0,96,0.00,,,0.05,Wunderground v.1.15,2013-01-11 17:57:00,
2013-01-11 11:58:00,38.6,37.6,29.68,SSW,196,3.0,6.0,96,0.00,,,0.05,Wunderground v.1.15,2013-01-11 17:58:00,
2013-01-11 11:59:00,38.6,37.6,29.68,South,179,3.0,6.0,96,0.00,,,0.05,Wunderground v.1.15,2013-01-11 17:59:00,
2013-01-11 12:01:00,38.5,37.5,29.68,SSW,192,3.0,6.0,96,0.00,,,0.05,Wunderground v.1.15,2013-01-11 18:01:00,
2013-01-11 12:04:00,38.5,37.7,29.67,SSW,193,3.0,6.0,97,0.00,,,0.05,Wunderground v.1.15,2013-01-11 18:04:00,
2013-01-11 12:06:00,38.6,38.0,29.67,SSE,166,2.0,-999.0,96,-99.99,,,0.05,weatherlink.com 1.10,2013-01-11 18:06:00,
2013-01-11 12:07:00,38.6,37.6,29.67,SSE,167,2.0,3.0,96,0.00,,,0.05,Wunderground v.1.15,2013-01-11 18:07:00,
2013-01-11 12:13:00,38.7,37.7,29.67,SSW,194,2.0,5.0,96,0.00,,,0.05,Wunderground v.1.15,2013-01-11 18:13:00,
2013-01-11 12:14:00,38.6,37.6,29.67,SW,214,2.0,5.0,96,0.00,,,0.05,Wunderground v.1.15,2013-01-11 18:14:00,
2013-01-11 12:16:00,38.6,37.6,29.68,South,190,3.0,4.0,96,0.00,,,0.05,Wunderground v.1.15,2013-01-11 18:16:00,
2013-01-11 12:18:00,38.5,37.5,29.68,South,172,3.0,4.0,96,0.00,,,0.05,Wunderground v.1.15,2013-01-11 18:18:00,
2013-01-11 12:21:00,38.5,38.0,29.68,South,181,2.0,-999.0,97,-99.99,,,0.05,weatherlink.com 1.10,2013-01-11 18:21:00,
2013-01-11 12:25:00,38.5,37.5,29.68,SSW,198,3.0,5.0,96,0.00,,,0.05,Wunderground v.1.15,2013-01-11 18:25:00,
2013-01-11 12:26:00,38.5,37.5,29.68,SW,236,3.0,7.0,96,0.00,,,0.05,Wunderground v.1.15,2013-01-11 18:26:00,
2013-01-11 12:31:00,38.5,37.5,29.68,South,182,4.0,7.0,96,0.00,,,0.05,Wunderground v.1.15,2013-01-11 18:31:00,
2013-01-11 12:33:00,38.6,37.6,29.68,SSW,197,4.0,7.0,96,0.00,,,0.05,Wunderground v.1.15,2013-01-11 18:33:00,
2013-01-11 12:35:00,38.6,37.8,29.68,SSW,203,4.0,7.0,97,0.00,,,0.05,Wunderground v.1.15,2013-01-11 18:35:00,
2013-01-11 12:37:00,38.6,38.0,29.69,SSW,207,4.0,-999.0,96,-99.99,,,0.05,weatherlink.com 1.10,2013-01-11 18:37:00,
2013-01-11 12:38:00,38.6,37.6,29.69,SSW,205,4.0,5.0,96,0.00,,,0.05,Wunderground v.1.15,2013-01-11 18:38:00,
2013-01-11 12:39:00,38.6,37.6,29.69,South,186,4.0,5.0,96,0.00,,,0.05,Wunderground v.1.15,2013-01-11 18:39:00,
2013-01-11 12:40:00,38.6,37.6,29.69,SSW,211,4.0,7.0,96,0.00,,,0.05,Wunderground v.1.15,2013-01-11 18:40:00,
2013-01-11 12:43:00,38.7,37.9,29.69,SSE,149,4.0,7.0,97,0.00,,,0.05,Wunderground v.1.15,2013-01-11 18:43:00,
2013-01-11 12:46:00,38.8,38.0,29.69,South,184,5.0,5.0,97,0.00,,,0.05,Wunderground v.1.15,2013-01-11 18:46:00,
2013-01-11 12:47:00,38.8,38.0,29.69,South,184,5.0,5.0,97,0.00,,,0.05,Wunderground v.1.15,2013-01-11 18:47:00,
2013-01-11 12:50:00,38.8,38.0,29.69,SW,219,5.0,5.0,97,0.00,,,0.05,Wunderground v.1.15,2013-01-11 18:50:00,
2013-01-11 12:52:00,38.8,38.0,29.68,SSW,211,4.0,5.0,97,0.00,,,0.05,Wunderground v.1.15,2013-01-11 18:52:00,
2013-01-11 12:54:00,38.9,38.1,29.68,South,188,4.0,7.0,97,0.00,,,0.05,Wunderground v.1.15,2013-01-11 18:54:00,
2013-01-11 12:55:00,38.9,38.1,29.68,SW,225,4.0,7.0,97,0.00,,,0.05,Wunderground v.1.15,2013-01-11 18:55:00,
2013-01-11 12:57:00,38.9,38.1,29.68,South,189,4.0,4.0,97,0.00,,,0.05,Wunderground v.1.15,2013-01-11 18:57:00,
2013-01-11 13:01:00,38.8,38.0,29.69,SSW,201,5.0,6.0,97,0.00,,,0.05,Wunderground v.1.15,2013-01-11 19:01:00,
2013-01-11 13:03:00,38.7,37.9,29.70,SW,219,5.0,10.0,97,0.00,,,0.05,Wunderground v.1.15,2013-01-11 19:03:00,
2013-01-11 13:04:00,38.7,37.9,29.70,SSW,210,5.0,10.0,97,0.00,,,0.05,Wunderground v.1.15,2013-01-11 19:04:00,
2013-01-11 13:05:00,38.7,37.9,29.70,SW,217,5.0,10.0,97,0.00,,,0.05,Wunderground v.1.15,2013-01-11 19:05:00,
2013-01-11 13:07:00,38.7,37.9,29.69,SSW,198,5.0,5.0,97,0.00,,,0.05,Wunderground v.1.15,2013-01-11 19:07:00,
2013-01-11 13:09:00,38.7,37.9,29.69,SSW,213,5.0,5.0,97,0.00,,,0.05,Wunderground v.1.15,2013-01-11 19:09:00,
2013-01-11 13:11:00,38.7,37.9,29.69,SW,233,5.0,6.0,97,0.00,,,0.05,Wunderground v.1.15,2013-01-11 19:11:00,
2013-01-11 13:12:00,38.8,38.0,29.68,SW,218,4.0,6.0,97,0.00,,,0.05,Wunderground v.1.15,2013-01-11 19:12:00,
2013-01-11 13:15:00,38.8,38.0,29.68,SSW,199,4.0,6.0,97,0.00,,,0.05,Wunderground v.1.15,2013-01-11 19:15:00,
2013-01-11 13:18:00,38.8,38.0,29.68,SW,214,3.0,4.0,97,0.00,,,0.05,Wunderground v.1.15,2013-01-11 19:18:00,
2013-01-11 13:22:00,38.8,38.0,29.67,South,189,3.0,4.0,97,0.00,,,0.05,Wunderground v.1.15,2013-01-11 19:22:00,
2013-01-11 13:23:00,38.8,38.0,29.67,SSW,206,2.0,-999.0,97,-99.99,,,0.05,weatherlink.com 1.10,2013-01-11 19:23:00,
2013-01-11 13:28:00,38.9,38.1,29.67,SW,223,3.0,11.0,97,0.00,,,0.05,Wunderground v.1.15,2013-01-11 19:28:00,
2013-01-11 13:29:00,38.9,38.1,29.67,SSW,203,3.0,11.0,97,0.00,,,0.05,Wunderground v.1.15,2013-01-11 19:29:00,
2013-01-11 13:30:00,38.9,37.9,29.67,SSW,202,3.0,11.0,96,0.00,,,0.05,Wunderground v.1.15,2013-01-11 19:30:00,
2013-01-11 13:32:00,39.0,38.0,29.67,South,190,3.0,11.0,96,0.00,,,0.05,Wunderground v.1.15,2013-01-11 19:32:00,
2013-01-11 13:34:00,39.0,38.0,29.67,SSW,201,3.0,11.0,96,0.00,,,0.05,Wunderground v.1.15,2013-01-11 19:34:00,
2013-01-11 13:35:00,39.0,38.0,29.67,SSW,206,3.0,11.0,96,0.00,,,0.05,Wunderground v.1.15,2013-01-11 19:35:00,
2013-01-11 13:37:00,39.0,38.0,29.67,SSW,208,3.0,11.0,96,0.00,,,0.05,Wunderground v.1.15,2013-01-11 19:37:00,
2013-01-11 13:38:00,39.0,38.0,29.68,SSW,211,3.0,11.0,96,0.00,,,0.05,Wunderground v.1.15,2013-01-11 19:38:00,
2013-01-11 13:40:00,39.0,38.0,29.68,SSW,202,4.0,11.0,96,0.00,,,0.05,Wunderground v.1.15,2013-01-11 19:40:00,
2013-01-11 13:44:00,39.1,38.1,29.68,SSW,202,3.0,11.0,96,0.00,,,0.05,Wunderground v.1.15,2013-01-11 19:44:00,
2013-01-11 13:45:00,39.1,38.1,29.68,South,182,3.0,11.0,96,0.00,,,0.05,Wunderground v.1.15,2013-01-11 19:45:00,
2013-01-11 13:48:00,39.1,38.1,29.68,SSW,213,3.0,11.0,96,0.00,,,0.05,Wunderground v.1.15,2013-01-11 19:48:00,
2013-01-11 13:51:00,39.2,38.0,29.67,SSW,213,1.0,-999.0,96,-99.99,,,0.05,weatherlink.com 1.10,2013-01-11 19:51:00,
2013-01-11 13:54:00,39.2,38.2,29.67,SSW,197,2.0,11.0,96,0.00,,,0.05,Wunderground v.1.15,2013-01-11 19:54:00,
2013-01-11 13:57:00,39.2,38.2,29.68,SSW,192,2.0,2.0,96,0.00,,,0.05,Wunderground v.1.15,2013-01-11 19:57:00,
2013-01-11 13:58:00,39.3,38.5,29.68,South,182,2.0,3.0,97,0.00,,,0.05,Wunderground v.1.15,2013-01-11 19:58:00,
2013-01-11 14:00:00,39.2,38.2,29.68,SW,222,2.0,3.0,96,0.00,,,0.05,Wunderground v.1.15,2013-01-11 20:00:00,
2013-01-11 14:02:00,39.2,38.2,29.68,SSW,211,2.0,3.0,96,0.00,,,0.05,Wunderground v.1.15,2013-01-11 20:02:00,
2013-01-11 14:04:00,39.2,38.2,29.69,SSW,202,3.0,4.0,96,0.00,,,0.05,Wunderground v.1.15,2013-01-11 20:04:00,
2013-01-11 14:06:00,39.2,38.2,29.68,SSW,213,3.0,3.0,96,0.00,,,0.05,Wunderground v.1.15,2013-01-11 20:06:00,
2013-01-11 14:07:00,39.2,38.2,29.68,SSW,208,3.0,4.0,96,0.00,,,0.05,Wunderground v.1.15,2013-01-11 20:07:00,
2013-01-11 14:10:00,39.1,38.1,29.68,SSW,202,3.0,4.0,96,0.00,,,0.05,Wunderground v.1.15,2013-01-11 20:10:00,
2013-01-11 14:14:00,39.2,38.2,29.68,SW,217,3.0,4.0,96,0.00,,,0.05,Wunderground v.1.15,2013-01-11 20:14:00,
2013-01-11 14:16:00,39.1,38.1,29.68,SSW,209,3.0,5.0,96,0.00,,,0.05,Wunderground v.1.15,2013-01-11 20:16:00,
2013-01-11 14:20:00,39.1,38.1,29.68,SSW,205,4.0,5.0,96,0.00,,,0.05,Wunderground v.1.15,2013-01-11 20:20:00,
2013-01-11 14:21:00,39.1,38.1,29.68,South,176,4.0,5.0,96,0.00,,,0.05,Wunderground v.1.15,2013-01-11 20:21:00,
2013-01-11 14:22:00,39.1,38.0,29.68,SW,221,4.0,-999.0,96,-99.99,,,0.05,weatherlink.com 1.10,2013-01-11 20:22:00,
2013-01-11 14:23:00,39.1,38.1,29.68,SSW,207,4.0,5.0,96,0.00,,,0.05,Wunderground v.1.15,2013-01-11 20:23:00,
2013-01-11 14:27:00,39.0,38.0,29.67,SSE,163,4.0,5.0,96,0.00,,,0.05,Wunderground v.1.15,2013-01-11 20:27:00,
2013-01-11 14:28:00,39.0,38.0,29.67,South,188,4.0,9.0,96,0.00,,,0.05,Wunderground v.1.15,2013-01-11 20:28:00,
2013-01-11 14:31:00,39.0,38.0,29.67,SSW,194,3.0,9.0,96,0.00,,,0.05,Wunderground v.1.15,2013-01-11 20:31:00,
2013-01-11 14:34:00,38.9,37.9,29.68,SW,214,3.0,9.0,96,0.00,,,0.05,Wunderground v.1.15,2013-01-11 20:34:00,
2013-01-11 14:37:00,38.8,38.0,29.68,South,178,2.0,-999.0,96,-99.99,,,0.05,weatherlink.com 1.10,2013-01-11 20:37:00,
2013-01-11 14:38:00,38.8,37.8,29.67,South,172,3.0,9.0,96,0.00,,,0.05,Wunderground v.1.15,2013-01-11 20:38:00,
2013-01-11 14:41:00,38.8,38.0,29.67,South,171,4.0,9.0,97,0.00,,,0.05,Wunderground v.1.15,2013-01-11 20:41:00,
2013-01-11 14:42:00,38.7,37.9,29.67,South,191,4.0,9.0,97,0.00,,,0.05,Wunderground v.1.15,2013-01-11 20:42:00,
2013-01-11 14:46:00,38.7,37.9,29.67,SSE,158,3.0,9.0,97,0.00,,,0.05,Wunderground v.1.15,2013-01-11 20:46:00,
2013-01-11 14:47:00,38.7,37.9,29.67,South,186,3.0,9.0,97,0.00,,,0.05,Wunderground v.1.15,2013-01-11 20:47:00,
2013-01-11 14:48:00,38.7,37.9,29.67,South,178,3.0,9.0,97,0.00,,,0.05,Wunderground v.1.15,2013-01-11 20:48:00,
2013-01-11 14:49:00,38.7,37.9,29.67,South,175,3.0,9.0,97,0.00,,,0.05,Wunderground v.1.15,2013-01-11 20:49:00,
2013-01-11 14:52:00,38.8,38.0,29.66,ESE,111,2.0,9.0,97,0.00,,,0.05,Wunderground v.1.15,2013-01-11 20:52:00,
2013-01-11 14:54:00,38.7,37.9,29.66,ESE,123,2.0,9.0,97,0.00,,,0.05,Wunderground v.1.15,2013-01-11 20:54:00,
2013-01-11 14:57:00,38.6,37.6,29.66,SSW,194,2.0,2.0,96,0.00,,,0.05,Wunderground v.1.15,2013-01-11 20:57:00,
2013-01-11 15:00:00,38.6,37.6,29.67,South,186,1.0,5.0,96,0.00,,,0.05,Wunderground v.1.15,2013-01-11 21:00:00,
2013-01-11 15:02:00,38.6,37.6,29.67,SSE,168,2.0,5.0,96,0.00,,,0.05,Wunderground v.1.15,2013-01-11 21:02:00,
2013-01-11 15:04:00,38.5,37.5,29.67,SSE,148,2.0,5.0,96,0.00,,,0.05,Wunderground v.1.15,2013-01-11 21:04:00,
2013-01-11 15:07:00,38.4,37.4,29.66,SSE,151,2.0,2.0,96,0.00,,,0.05,Wunderground v.1.15,2013-01-11 21:07:00,
2013-01-11 15:08:00,38.4,37.4,29.66,SSE,153,2.0,2.0,96,0.00,,,0.05,Wunderground v.1.15,2013-01-11 21:08:00,
2013-01-11 15:13:00,38.3,37.3,29.66,ESE,113,2.0,2.0,96,0.00,,,0.05,Wunderground v.1.15,2013-01-11 21:13:00,
2013-01-11 15:14:00,38.3,37.3,29.66,South,190,2.0,2.0,96,0.00,,,0.05,Wunderground v.1.15,2013-01-11 21:14:00,
2013-01-11 15:15:00,38.3,37.3,29.66,SE,131,2.0,2.0,96,0.00,,,0.05,Wunderground v.1.15,2013-01-11 21:15:00,
2013-01-11 15:19:00,38.3,37.3,29.66,ESE,122,1.0,5.0,96,0.00,,,0.05,Wunderground v.1.15,2013-01-11 21:19:00,
2013-01-11 15:21:00,38.3,37.3,29.66,SE,126,2.0,5.0,96,0.00,,,0.05,Wunderground v.1.15,2013-01-11 21:21:00,
2013-01-11 15:22:00,38.3,37.0,29.66,SE,126,0.0,-999.0,96,-99.99,,,0.05,weatherlink.com 1.10,2013-01-11 21:22:00,
2013-01-11 15:27:00,38.3,37.3,29.65,ESE,111,1.0,9.0,96,0.00,,,0.05,Wunderground v.1.15,2013-01-11 21:27:00,
2013-01-11 15:29:00,38.3,37.3,29.65,SE,142,1.0,9.0,96,0.00,,,0.05,Wunderground v.1.15,2013-01-11 21:29:00,
2013-01-11 15:32:00,38.2,37.4,29.65,SE,132,1.0,9.0,97,0.00,,,0.05,Wunderground v.1.15,2013-01-11 21:32:00,
2013-01-11 15:34:00,38.3,37.5,29.66,SSE,157,1.0,9.0,97,0.00,,,0.05,Wunderground v.1.15,2013-01-11 21:34:00,
2013-01-11 15:36:00,38.3,37.5,29.65,SSE,157,1.0,1.0,97,0.00,,,0.05,Wunderground v.1.15,2013-01-11 21:36:00,
2013-01-11 15:38:00,38.3,37.5,29.65,SSE,157,1.0,9.0,97,0.00,,,0.05,Wunderground v.1.15,2013-01-11 21:38:00,
2013-01-11 15:39:00,38.3,37.5,29.65,ESE,119,1.0,9.0,97,0.00,,,0.05,Wunderground v.1.15,2013-01-11 21:39:00,
2013-01-11 15:41:00,38.3,37.5,29.65,SE,140,1.0,9.0,97,0.00,,,0.05,Wunderground v.1.15,2013-01-11 21:41:00,
2013-01-11 15:43:00,38.3,37.5,29.66,SSW,202,1.0,9.0,97,0.00,,,0.05,Wunderground v.1.15,2013-01-11 21:43:00,
2013-01-11 15:44:00,38.3,37.5,29.66,South,185,1.0,9.0,97,0.00,,,0.05,Wunderground v.1.15,2013-01-11 21:44:00,
2013-01-11 15:47:00,38.3,37.5,29.66,SSE,165,2.0,9.0,97,0.00,,,0.05,Wunderground v.1.15,2013-01-11 21:47:00,
2013-01-11 15:49:00,38.2,37.4,29.66,South,169,3.0,9.0,97,0.00,,,0.05,Wunderground v.1.15,2013-01-11 21:49:00,
2013-01-11 15:50:00,38.2,37.4,29.66,South,180,3.0,9.0,97,0.00,,,0.05,Wunderground v.1.15,2013-01-11 21:50:00,
2013-01-11 15:53:00,38.1,37.0,29.65,South,180,0.0,-999.0,97,-99.99,,,0.05,weatherlink.com 1.10,2013-01-11 21:53:00,
2013-01-11 15:57:00,38.1,37.1,29.66,WSW,245,3.0,3.0,96,0.00,,,0.05,Wunderground v.1.15,2013-01-11 21:57:00,
2013-01-11 15:59:00,38.0,37.0,29.65,SSW,211,3.0,4.0,96,0.00,,,0.05,Wunderground v.1.15,2013-01-11 21:59:00,
2013-01-11 16:00:00,38.1,37.1,29.66,SSE,168,3.0,4.0,96,0.00,,,0.05,Wunderground v.1.15,2013-01-11 22:00:00,
2013-01-11 16:04:00,38.1,37.1,29.65,SSW,194,4.0,6.0,96,0.00,,,0.05,Wunderground v.1.15,2013-01-11 22:04:00,
2013-01-11 16:06:00,38.2,37.2,29.65,SSW,203,4.0,4.0,96,0.00,,,0.05,Wunderground v.1.15,2013-01-11 22:06:00,
2013-01-11 16:07:00,38.1,37.1,29.65,SE,138,4.0,4.0,96,0.00,,,0.05,Wunderground v.1.15,2013-01-11 22:07:00,
2013-01-11 16:10:00,38.2,37.2,29.65,South,181,4.0,5.0,96,0.00,,,0.05,Wunderground v.1.15,2013-01-11 22:10:00,
2013-01-11 16:11:00,38.2,37.2,29.65,SSW,201,3.0,6.0,96,0.00,,,0.05,Wunderground v.1.15,2013-01-11 22:11:00,
2013-01-11 16:12:00,38.2,37.4,29.65,South,184,4.0,6.0,97,0.00,,,0.05,Wunderground v.1.15,2013-01-11 22:12:00,
2013-01-11 16:13:00,38.2,37.4,29.65,SW,223,3.0,6.0,97,0.00,,,0.05,Wunderground v.1.15,2013-01-11 22:13:00,
2013-01-11 16:17:00,38.3,37.5,29.64,South,175,3.0,4.0,97,0.00,,,0.05,Wunderground v.1.15,2013-01-11 22:17:00,
2013-01-11 16:18:00,38.3,37.5,29.64,SSW,213,3.0,4.0,97,0.00,,,0.05,Wunderground v.1.15,2013-01-11 22:18:00,
2013-01-11 16:20:00,38.3,37.5,29.65,SSW,205,3.0,4.0,97,0.00,,,0.05,Wunderground v.1.15,2013-01-11 22:20:00,
2013-01-11 16:22:00,38.3,38.0,29.65,WSW,242,3.0,-999.0,97,-99.99,,,0.05,weatherlink.com 1.10,2013-01-11 22:22:00,
2013-01-11 16:23:00,38.3,37.5,29.65,SSW,200,4.0,6.0,97,0.00,,,0.05,Wunderground v.1.15,2013-01-11 22:23:00,
2013-01-11 16:25:00,38.3,37.5,29.65,South,190,4.0,6.0,97,0.00,,,0.05,Wunderground v.1.15,2013-01-11 22:25:00,
2013-01-11 16:28:00,38.3,37.5,29.65,SSW,210,4.0,8.0,97,0.00,,,0.05,Wunderground v.1.15,2013-01-11 22:28:00,
2013-01-11 16:29:00,38.4,37.6,29.65,South,190,4.0,8.0,97,0.00,,,0.05,Wunderground v.1.15,2013-01-11 22:29:00,
2013-01-11 16:34:00,38.4,37.6,29.66,South,180,4.0,8.0,97,0.00,,,0.05,Wunderground v.1.15,2013-01-11 22:34:00,
2013-01-11 16:35:00,38.4,37.6,29.66,SSE,163,4.0,8.0,97,0.00,,,0.05,Wunderground v.1.15,2013-01-11 22:35:00,
2013-01-11 16:38:00,38.4,37.6,29.66,South,186,4.0,8.0,97,0.00,,,0.05,Wunderground v.1.15,2013-01-11 22:38:00,
2013-01-11 16:40:00,38.4,37.6,29.66,South,186,5.0,8.0,97,0.00,,,0.05,Wunderground v.1.15,2013-01-11 22:40:00,
2013-01-11 16:42:00,38.5,37.7,29.66,SW,217,5.0,8.0,97,0.00,,,0.05,Wunderground v.1.15,2013-01-11 22:42:00,
2013-01-11 16:43:00,38.5,37.7,29.66,SSW,207,5.0,8.0,97,0.00,,,0.05,Wunderground v.1.15,2013-01-11 22:43:00,
2013-01-11 16:47:00,38.3,37.5,29.66,SSW,196,4.0,8.0,97,0.00,,,0.05,Wunderground v.1.15,2013-01-11 22:47:00,
2013-01-11 16:48:00,38.3,37.5,29.66,South,190,4.0,8.0,97,0.00,,,0.05,Wunderground v.1.15,2013-01-11 22:48:00,
2013-01-11 16:49:00,38.3,37.5,29.66,South,180,4.0,8.0,97,0.00,,,0.05,Wunderground v.1.15,2013-01-11 22:49:00,
2013-01-11 16:52:00,38.3,37.5,29.66,SSW,203,4.0,8.0,97,0.00,,,0.05,Wunderground v.1.15,2013-01-11 22:52:00,
2013-01-11 16:53:00,38.3,37.5,29.67,SSW,193,4.0,8.0,97,0.00,,,0.05,Wunderground v.1.15,2013-01-11 22:53:00,
2013-01-11 16:54:00,38.4,37.6,29.66,SW,218,4.0,8.0,97,0.00,,,0.05,Wunderground v.1.15,2013-01-11 22:54:00,
2013-01-11 16:57:00,38.4,37.6,29.66,South,177,4.0,4.0,97,0.00,,,0.05,Wunderground v.1.15,2013-01-11 22:57:00,
2013-01-11 16:58:00,38.4,37.6,29.66,SSW,196,4.0,4.0,97,0.00,,,0.05,Wunderground v.1.15,2013-01-11 22:58:00,
2013-01-11 16:59:00,38.4,37.6,29.66,South,186,4.0,4.0,97,0.00,,,0.05,Wunderground v.1.15,2013-01-11 22:59:00,
2013-01-11 17:01:00,38.4,37.6,29.65,ESE,113,3.0,4.0,97,0.00,,,0.05,Wunderground v.1.15,2013-01-11 23:01:00,
2013-01-11 17:02:00,38.4,37.6,29.65,SSW,200,3.0,4.0,97,0.00,,,0.05,Wunderground v.1.15,2013-01-11 23:02:00,
2013-01-11 17:04:00,38.4,37.6,29.65,South,186,3.0,5.0,97,0.00,,,0.05,Wunderground v.1.15,2013-01-11 23:04:00,
2013-01-11 17:07:00,38.5,37.7,29.65,SSE,157,3.0,3.0,97,0.00,,,0.05,Wunderground v.1.15,2013-01-11 23:07:00,
2013-01-11 17:08:00,38.5,38.0,29.65,South,188,2.0,-999.0,97,-99.99,,,0.05,weatherlink.com 1.10,2013-01-11 23:08:00,
2013-01-11 17:10:00,38.5,37.7,29.66,South,181,3.0,5.0,97,0.00,,,0.05,Wunderground v.1.15,2013-01-11 23:10:00,
2013-01-11 17:13:00,38.5,37.7,29.66,South,180,3.0,5.0,97,0.00,,,0.05,Wunderground v.1.15,2013-01-11 23:13:00,
2013-01-11 17:14:00,38.5,37.7,29.67,SSW,209,3.0,5.0,97,0.00,,,0.05,Wunderground v.1.15,2013-01-11 23:14:00,
2013-01-11 17:16:00,38.5,37.7,29.67,SW,224,3.0,3.0,97,0.00,,,0.05,Wunderground v.1.15,2013-01-11 23:16:00,
2013-01-11 17:19:00,38.5,37.5,29.66,SW,229,3.0,4.0,96,0.00,,,0.05,Wunderground v.1.15,2013-01-11 23:19:00,
2013-01-11 17:20:00,38.5,37.7,29.66,SW,217,3.0,4.0,97,0.00,,,0.05,Wunderground v.1.15,2013-01-11 23:20:00,
2013-01-11 17:21:00,38.5,37.7,29.66,SW,217,3.0,4.0,97,0.00,,,0.05,Wunderground v.1.15,2013-01-11 23:21:00,
2013-01-11 17:22:00,38.5,37.7,29.67,SSW,209,3.0,4.0,97,0.00,,,0.05,Wunderground v.1.15,2013-01-11 23:22:00,
2013-01-11 17:26:00,38.5,37.7,29.66,South,180,2.0,2.0,97,0.00,,,0.05,Wunderground v.1.15,2013-01-11 23:26:00,
2013-01-11 17:27:00,38.5,37.7,29.66,South,186,2.0,9.0,97,0.00,,,0.05,Wunderground v.1.15,2013-01-11 23:27:00,
2013-01-11 17:28:00,38.4,37.6,29.66,SSE,157,2.0,9.0,97,0.00,,,0.05,Wunderground v.1.15,2013-01-11 23:28:00,
2013-01-11 17:32:00,38.4,37.6,29.65,South,184,2.0,9.0,97,0.00,,,0.05,Wunderground v.1.15,2013-01-11 23:32:00,
2013-01-11 17:33:00,38.4,37.6,29.65,South,185,2.0,9.0,97,0.00,,,0.05,Wunderground v.1.15,2013-01-11 23:33:00,
2013-01-11 17:37:00,38.4,37.6,29.65,SW,216,2.0,9.0,97,0.00,,,0.05,Wunderground v.1.15,2013-01-11 23:37:00,
2013-01-11 17:38:00,38.5,37.7,29.66,SSW,199,2.0,9.0,97,0.00,,,0.05,Wunderground v.1.15,2013-01-11 23:38:00,
2013-01-11 17:39:00,38.5,37.7,29.66,SW,225,2.0,9.0,97,0.00,,,0.05,Wunderground v.1.15,2013-01-11 23:39:00,
2013-01-11 17:44:00,38.6,37.8,29.65,South,175,3.0,9.0,97,0.00,,,0.05,Wunderground v.1.15,2013-01-11 23:44:00,
2013-01-11 17:47:00,38.6,37.8,29.65,SW,214,3.0,9.0,97,0.00,,,0.05,Wunderground v.1.15,2013-01-11 23:47:00,
2013-01-11 17:50:00,38.7,37.9,29.65,South,180,3.0,9.0,97,0.00,,,0.05,Wunderground v.1.15,2013-01-11 23:50:00,
2013-01-11 17:51:00,38.7,37.9,29.65,SSW,197,3.0,9.0,97,0.00,,,0.05,Wunderground v.1.15,2013-01-11 23:51:00,
2013-01-11 17:53:00,38.7,38.0,29.65,SSE,164,0.0,-999.0,97,-99.99,,,0.05,weatherlink.com 1.10,2013-01-11 23:53:00,
2013-01-11 17:57:00,38.7,37.9,29.65,SSW,203,3.0,5.0,97,0.00,,,0.05,Wunderground v.1.15,2013-01-11 23:57:00,
2013-01-11 17:58:00,38.8,38.0,29.65,SSW,201,3.0,5.0,97,0.00,,,0.05,Wunderground v.1.15,2013-01-11 23:58:00,
2013-01-11 18:02:00,38.8,38.0,29.65,SE,138,3.0,6.0,97,0.00,,,0.05,Wunderground v.1.15,2013-01-12 00:02:00,
2013-01-11 18:04:00,38.9,38.1,29.65,SSW,209,4.0,6.0,97,0.00,,,0.05,Wunderground v.1.15,2013-01-12 00:04:00,
2013-01-11 18:05:00,38.9,38.1,29.65,SSE,148,4.0,6.0,97,0.00,,,0.05,Wunderground v.1.15,2013-01-12 00:05:00,
2013-01-11 18:08:00,39.0,38.0,29.65,South,186,7.0,-999.0,97,-99.99,,,0.05,weatherlink.com 1.10,2013-01-12 00:08:00,
2013-01-11 18:12:00,39.0,38.2,29.65,SW,228,4.0,8.0,97,0.00,,,0.05,Wunderground v.1.15,2013-01-12 00:12:00,
2013-01-11 18:14:00,39.0,38.2,29.65,South,184,4.0,9.0,97,0.00,,,0.05,Wunderground v.1.15,2013-01-12 00:14:00,
2013-01-11 18:15:00,39.0,38.2,29.65,SSW,198,4.0,9.0,97,0.00,,,0.05,Wunderground v.1.15,2013-01-12 00:15:00,
2013-01-11 18:17:00,38.9,38.1,29.65,SSW,194,4.0,6.0,97,0.00,,,0.05,Wunderground v.1.15,2013-01-12 00:17:00,
2013-01-11 18:21:00,38.9,38.1,29.64,South,172,4.0,6.0,97,0.00,,,0.05,Wunderground v.1.15,2013-01-12 00:21:00,
2013-01-11 18:22:00,39.0,38.0,29.64,South,190,3.0,-999.0,97,-99.99,,,0.05,weatherlink.com 1.10,2013-01-12 00:22:00,
2013-01-11 18:23:00,39.0,38.2,29.64,SSE,159,4.0,6.0,97,0.00,,,0.05,Wunderground v.1.15,2013-01-12 00:23:00,
2013-01-11 18:24:00,39.0,38.2,29.64,SW,221,4.0,6.0,97,0.00,,,0.05,Wunderground v.1.15,2013-01-12 00:24:00,
2013-01-11 18:27:00,39.1,38.3,29.64,South,180,4.0,9.0,97,0.00,,,0.05,Wunderground v.1.15,2013-01-12 00:27:00,
2013-01-11 18:28:00,39.1,38.3,29.63,South,190,3.0,9.0,97,0.00,,,0.05,Wunderground v.1.15,2013-01-12 00:28:00,
2013-01-11 18:29:00,39.1,38.3,29.63,SSE,167,3.0,9.0,97,0.00,,,0.05,Wunderground v.1.15,2013-01-12 00:29:00,
2013-01-11 18:33:00,39.1,38.3,29.63,SSE,163,3.0,9.0,97,0.00,,,0.05,Wunderground v.1.15,2013-01-12 00:33:00,
2013-01-11 18:34:00,39.1,38.3,29.63,SSW,200,2.0,9.0,97,0.00,,,0.05,Wunderground v.1.15,2013-01-12 00:34:00,
2013-01-11 18:35:00,39.1,38.3,29.63,SSW,200,2.0,9.0,97,0.00,,,0.05,Wunderground v.1.15,2013-01-12 00:35:00,
2013-01-11 18:38:00,39.1,38.3,29.63,South,182,2.0,9.0,97,0.00,,,0.05,Wunderground v.1.15,2013-01-12 00:38:00,
2013-01-11 18:42:00,39.2,38.4,29.63,South,173,3.0,9.0,97,0.00,,,0.05,Wunderground v.1.15,2013-01-12 00:42:00,
2013-01-11 18:43:00,39.2,38.4,29.63,SSW,202,3.0,9.0,97,0.00,,,0.05,Wunderground v.1.15,2013-01-12 00:43:00,
2013-01-11 18:44:00,39.3,38.5,29.63,SSW,198,3.0,9.0,97,0.00,,,0.05,Wunderground v.1.15,2013-01-12 00:44:00,
2013-01-11 18:49:00,39.3,38.5,29.63,South,184,3.0,9.0,97,0.00,,,0.05,Wunderground v.1.15,2013-01-12 00:49:00,
2013-01-11 18:50:00,39.3,38.5,29.63,SSW,203,3.0,9.0,97,0.00,,,0.05,Wunderground v.1.15,2013-01-12 00:50:00,
2013-01-11 18:51:00,39.4,38.6,29.63,SSW,209,3.0,9.0,97,0.00,,,0.05,Wunderground v.1.15,2013-01-12 00:51:00,
2013-01-11 18:54:00,39.5,38.7,29.63,SSE,159,4.0,9.0,97,0.00,,,0.05,Wunderground v.1.15,2013-01-12 00:54:00,
2013-01-11 18:57:00,39.7,38.9,29.62,South,186,4.0,6.0,97,0.00,,,0.05,Wunderground v.1.15,2013-01-12 00:57:00,
2013-01-11 18:59:00,39.8,39.0,29.62,South,180,4.0,6.0,97,0.00,,,0.05,Wunderground v.1.15,2013-01-12 00:59:00,
2013-01-11 19:00:00,39.8,39.0,29.62,SW,234,4.0,6.0,97,0.00,,,0.05,Wunderground v.1.15,2013-01-12 01:00:00,
2013-01-11 19:03:00,39.8,39.0,29.62,South,182,4.0,6.0,97,0.00,,,0.05,Wunderground v.1.15,2013-01-12 01:03:00,
2013-01-11 19:05:00,39.9,39.1,29.62,South,171,3.0,6.0,97,0.00,,,0.05,Wunderground v.1.15,2013-01-12 01:05:00,
2013-01-11 19:08:00,40.1,39.3,29.62,South,191,3.0,5.0,97,0.00,,,0.05,Wunderground v.1.15,2013-01-12 01:08:00,
2013-01-11 19:10:00,40.1,39.3,29.62,SSW,196,3.0,6.0,97,0.00,,,0.05,Wunderground v.1.15,2013-01-12 01:10:00,
2013-01-11 19:12:00,40.1,39.3,29.62,South,174,3.0,6.0,97,0.00,,,0.05,Wunderground v.1.15,2013-01-12 01:12:00,
2013-01-11 19:16:00,40.2,39.4,29.62,South,172,3.0,5.0,97,0.00,,,0.05,Wunderground v.1.15,2013-01-12 01:16:00,
2013-01-11 19:18:00,40.3,39.5,29.62,South,187,3.0,5.0,97,0.00,,,0.05,Wunderground v.1.15,2013-01-12 01:18:00,
2013-01-11 19:22:00,40.3,39.5,29.62,South,172,2.0,5.0,97,0.00,,,0.05,Wunderground v.1.15,2013-01-12 01:22:00,
2013-01-11 19:23:00,40.3,40.0,29.63,SSW,204,1.0,-999.0,97,-99.99,,,0.05,weatherlink.com 1.10,2013-01-12 01:23:00,
2013-01-11 19:25:00,40.4,39.6,29.63,SW,221,2.0,5.0,97,0.00,,,0.05,Wunderground v.1.15,2013-01-12 01:25:00,
2013-01-11 19:28:00,40.4,39.6,29.63,South,169,3.0,9.0,97,0.00,,,0.05,Wunderground v.1.15,2013-01-12 01:28:00,
2013-01-11 19:29:00,40.5,39.7,29.63,SSE,155,3.0,9.0,97,0.00,,,0.05,Wunderground v.1.15,2013-01-12 01:29:00,
2013-01-11 19:30:00,40.5,39.7,29.63,South,179,3.0,9.0,97,0.00,,,0.05,Wunderground v.1.15,2013-01-12 01:30:00,
2013-01-11 19:32:00,40.5,39.7,29.64,SSW,193,3.0,9.0,97,0.00,,,0.05,Wunderground v.1.15,2013-01-12 01:32:00,
2013-01-11 19:34:00,40.5,39.7,29.64,SSW,199,3.0,9.0,97,0.00,,,0.05,Wunderground v.1.15,2013-01-12 01:34:00,
2013-01-11 19:38:00,40.6,39.8,29.63,South,177,3.0,9.0,97,0.00,,,0.05,Wunderground v.1.15,2013-01-12 01:38:00,
2013-01-11 19:39:00,40.6,39.8,29.63,SSW,205,3.0,9.0,97,0.00,,,0.05,Wunderground v.1.15,2013-01-12 01:39:00,
2013-01-11 19:44:00,40.7,39.9,29.63,South,184,3.0,9.0,97,0.00,,,0.05,Wunderground v.1.15,2013-01-12 01:44:00,
2013-01-11 19:45:00,40.7,39.9,29.63,South,184,3.0,9.0,97,0.00,,,0.05,Wunderground v.1.15,2013-01-12 01:45:00,
2013-01-11 19:48:00,40.7,39.9,29.63,SSE,155,2.0,9.0,97,0.00,,,0.05,Wunderground v.1.15,2013-01-12 01:48:00,
2013-01-11 19:50:00,40.7,39.9,29.63,South,170,2.0,9.0,97,0.00,,,0.05,Wunderground v.1.15,2013-01-12 01:50:00,
2013-01-11 19:51:00,40.7,39.9,29.63,South,182,2.0,9.0,97,0.00,,,0.05,Wunderground v.1.15,2013-01-12 01:51:00,
2013-01-11 19:52:00,40.8,40.0,29.63,South,178,2.0,9.0,97,0.00,,,0.05,Wunderground v.1.15,2013-01-12 01:52:00,
2013-01-11 19:54:00,40.8,40.0,29.63,SSW,212,3.0,-999.0,97,-99.99,,,0.05,weatherlink.com 1.10,2013-01-12 01:54:00,
2013-01-11 19:59:00,40.9,40.1,29.63,South,178,2.0,5.0,97,0.00,,,0.05,Wunderground v.1.15,2013-01-12 01:59:00,
2013-01-11 20:00:00,40.9,40.1,29.63,SSE,164,2.0,5.0,97,0.00,,,0.05,Wunderground v.1.15,2013-01-12 02:00:00,
2013-01-11 20:01:00,40.9,40.1,29.63,South,176,3.0,5.0,97,0.00,,,0.05,Wunderground v.1.15,2013-01-12 02:01:00,
2013-01-11 20:02:00,41.0,40.2,29.63,SSW,198,3.0,5.0,97,0.00,,,0.05,Wunderground v.1.15,2013-01-12 02:02:00,
2013-01-11 20:05:00,41.0,40.2,29.63,SW,217,2.0,5.0,97,0.00,,,0.05,Wunderground v.1.15,2013-01-12 02:05:00,
2013-01-11 20:07:00,41.1,40.3,29.63,South,178,3.0,5.0,97,0.00,,,0.05,Wunderground v.1.15,2013-01-12 02:07:00,
2013-01-11 20:08:00,41.1,40.3,29.63,SSE,162,3.0,6.0,97,0.00,,,0.05,Wunderground v.1.15,2013-01-12 02:08:00,
2013-01-11 20:10:00,41.1,40.3,29.63,SSW,199,3.0,6.0,97,0.00,,,0.05,Wunderground v.1.15,2013-01-12 02:10:00,
2013-01-11 20:13:00,41.2,40.4,29.63,SSW,198,3.0,6.0,97,0.00,,,0.05,Wunderground v.1.15,2013-01-12 02:13:00,
2013-01-11 20:14:00,41.2,40.4,29.63,South,176,3.0,6.0,97,0.00,,,0.05,Wunderground v.1.15,2013-01-12 02:14:00,
2013-01-11 20:18:00,41.4,40.6,29.62,SSE,161,4.0,5.0,97,0.00,,,0.05,Wunderground v.1.15,2013-01-12 02:18:00,
2013-01-11 20:19:00,41.4,40.6,29.62,South,172,4.0,5.0,97,0.00,,,0.05,Wunderground v.1.15,2013-01-12 02:19:00,
2013-01-11 20:20:00,41.5,40.7,29.62,South,187,4.0,5.0,97,0.00,,,0.05,Wunderground v.1.15,2013-01-12 02:20:00,
2013-01-11 20:23:00,41.5,40.7,29.62,SSW,205,4.0,5.0,97,0.00,,,0.05,Wunderground v.1.15,2013-01-12 02:23:00,
2013-01-11 20:25:00,41.5,40.7,29.62,SSW,209,4.0,5.0,97,0.00,,,0.05,Wunderground v.1.15,2013-01-12 02:25:00,
2013-01-11 20:27:00,41.5,40.7,29.62,South,180,4.0,5.0,97,0.00,,,0.05,Wunderground v.1.15,2013-01-12 02:27:00,
2013-01-11 20:29:00,41.6,40.8,29.62,SE,146,4.0,7.0,97,0.00,,,0.05,Wunderground v.1.15,2013-01-12 02:29:00,
2013-01-11 20:30:00,41.7,40.9,29.62,SSW,192,4.0,7.0,97,0.00,,,0.05,Wunderground v.1.15,2013-01-12 02:30:00,
2013-01-11 20:32:00,41.7,40.9,29.62,SSW,199,4.0,7.0,97,0.00,,,0.05,Wunderground v.1.15,2013-01-12 02:32:00,
2013-01-11 20:34:00,41.8,41.0,29.61,South,173,4.0,7.0,97,0.00,,,0.05,Wunderground v.1.15,2013-01-12 02:34:00,
2013-01-11 20:35:00,41.8,41.0,29.62,South,173,4.0,7.0,97,0.00,,,0.05,Wunderground v.1.15,2013-01-12 02:35:00,
2013-01-11 20:38:00,41.9,41.1,29.61,South,169,4.0,7.0,97,0.00,,,0.05,Wunderground v.1.15,2013-01-12 02:38:00,
2013-01-11 20:39:00,41.9,41.1,29.61,SSW,199,4.0,7.0,97,0.00,,,0.05,Wunderground v.1.15,2013-01-12 02:39:00,
2013-01-11 20:44:00,42.2,41.4,29.61,South,179,3.0,8.0,97,0.00,,,0.05,Wunderground v.1.15,2013-01-12 02:44:00,
2013-01-11 20:45:00,42.2,41.4,29.61,South,187,4.0,8.0,97,0.00,,,0.05,Wunderground v.1.15,2013-01-12 02:45:00,
2013-01-11 20:46:00,42.2,41.4,29.61,SSE,167,4.0,7.0,97,0.00,,,0.05,Wunderground v.1.15,2013-01-12 02:46:00,
2013-01-11 20:48:00,42.2,41.4,29.61,South,189,4.0,7.0,97,0.00,,,0.05,Wunderground v.1.15,2013-01-12 02:48:00,
2013-01-11 20:52:00,42.2,41.4,29.61,South,188,5.0,7.0,97,0.00,,,0.05,Wunderground v.1.15,2013-01-12 02:52:00,
2013-01-11 20:53:00,42.2,41.0,29.61,South,179,4.0,-999.0,97,-99.99,,,0.05,weatherlink.com 1.10,2013-01-12 02:53:00,
2013-01-11 20:54:00,42.2,41.4,29.61,SW,222,5.0,7.0,97,0.00,,,0.05,Wunderground v.1.15,2013-01-12 02:54:00,
2013-01-11 20:59:00,42.2,41.4,29.61,SSE,165,4.0,4.0,97,0.00,,,0.05,Wunderground v.1.15,2013-01-12 02:59:00,
2013-01-11 21:01:00,42.2,41.4,29.61,SW,215,4.0,4.0,97,0.00,,,0.05,Wunderground v.1.15,2013-01-12 03:01:00,
2013-01-11 21:03:00,42.3,41.5,29.61,SSW,204,4.0,4.0,97,0.00,,,0.05,Wunderground v.1.15,2013-01-12 03:03:00,
2013-01-11 21:04:00,42.3,41.5,29.61,SW,220,3.0,4.0,97,0.00,,,0.05,Wunderground v.1.15,2013-01-12 03:04:00,
2013-01-11 21:09:00,42.3,41.5,29.61,SW,227,3.0,6.0,97,0.00,,,0.05,Wunderground v.1.15,2013-01-12 03:09:00,
2013-01-11 21:10:00,42.3,41.5,29.61,SSW,203,3.0,6.0,97,0.00,,,0.05,Wunderground v.1.15,2013-01-12 03:10:00,
2013-01-11 21:12:00,42.4,41.6,29.61,SSW,198,3.0,6.0,97,0.00,,,0.05,Wunderground v.1.15,2013-01-12 03:12:00,
2013-01-11 21:15:00,42.4,41.6,29.61,SSW,211,3.0,6.0,97,0.00,,,0.05,Wunderground v.1.15,2013-01-12 03:15:00,
2013-01-11 21:17:00,42.4,41.6,29.60,SSW,202,3.0,5.0,97,0.00,,,0.05,Wunderground v.1.15,2013-01-12 03:17:00,
2013-01-11 21:19:00,42.4,41.6,29.60,SSE,166,3.0,5.0,97,0.00,,,0.05,Wunderground v.1.15,2013-01-12 03:19:00,
2013-01-11 21:20:00,42.4,41.6,29.60,SW,218,3.0,5.0,97,0.00,,,0.05,Wunderground v.1.15,2013-01-12 03:20:00,
2013-01-11 21:23:00,42.5,42.0,29.60,South,169,4.0,-999.0,97,-99.99,,,0.05,weatherlink.com 1.10,2013-01-12 03:23:00,
2013-01-11 21:26:00,42.5,41.7,29.60,South,187,3.0,3.0,97,0.00,,,0.05,Wunderground v.1.15,2013-01-12 03:26:00,
2013-01-11 21:28:00,42.6,41.8,29.60,SSW,208,3.0,9.0,97,0.00,,,0.05,Wunderground v.1.15,2013-01-12 03:28:00,
2013-01-11 21:30:00,42.6,41.8,29.60,SSW,202,3.0,9.0,97,0.00,,,0.05,Wunderground v.1.15,2013-01-12 03:30:00,
2013-01-11 21:31:00,42.6,41.8,29.60,South,173,3.0,9.0,97,0.00,,,0.05,Wunderground v.1.15,2013-01-12 03:31:00,
2013-01-11 21:35:00,42.7,41.9,29.60,SSW,205,2.0,9.0,97,0.00,,,0.05,Wunderground v.1.15,2013-01-12 03:35:00,
2013-01-11 21:36:00,42.7,41.9,29.61,South,180,2.0,2.0,97,0.00,,,0.05,Wunderground v.1.15,2013-01-12 03:36:00,
2013-01-11 21:38:00,42.7,41.9,29.60,South,186,2.0,9.0,97,0.00,,,0.05,Wunderground v.1.15,2013-01-12 03:38:00,
2013-01-11 21:39:00,42.7,41.9,29.60,South,186,2.0,9.0,97,0.00,,,0.05,Wunderground v.1.15,2013-01-12 03:39:00,
2013-01-11 21:41:00,42.7,41.9,29.60,SSW,198,2.0,9.0,97,0.00,,,0.05,Wunderground v.1.15,2013-01-12 03:41:00,
2013-01-11 21:43:00,42.7,41.9,29.60,SSW,193,2.0,9.0,97,0.00,,,0.05,Wunderground v.1.15,2013-01-12 03:43:00,
2013-01-11 21:45:00,42.8,42.0,29.60,South,186,2.0,9.0,97,0.00,,,0.05,Wunderground v.1.15,2013-01-12 03:45:00,
2013-01-11 21:46:00,42.8,42.0,29.60,South,174,2.0,9.0,97,0.00,,,0.05,Wunderground v.1.15,2013-01-12 03:46:00,
2013-01-11 21:47:00,42.8,42.0,29.60,South,185,2.0,9.0,97,0.00,,,0.05,Wunderground v.1.15,2013-01-12 03:47:00,
2013-01-11 21:49:00,42.9,42.1,29.60,South,182,2.0,9.0,97,0.00,,,0.05,Wunderground v.1.15,2013-01-12 03:49:00,
2013-01-11 21:51:00,42.9,42.1,29.60,South,184,3.0,9.0,97,0.00,,,0.05,Wunderground v.1.15,2013-01-12 03:51:00,
2013-01-11 21:53:00,42.9,42.0,29.60,South,184,3.0,-999.0,97,-99.99,,,0.05,weatherlink.com 1.10,2013-01-12 03:53:00,
2013-01-11 21:57:00,42.9,42.1,29.60,South,173,3.0,4.0,97,0.00,,,0.05,Wunderground v.1.15,2013-01-12 03:57:00,
2013-01-11 22:00:00,42.9,42.1,29.60,SSE,167,3.0,5.0,97,0.00,,,0.05,Wunderground v.1.15,2013-01-12 04:00:00,
2013-01-11 22:02:00,42.9,42.1,29.60,South,183,3.0,5.0,97,0.00,,,0.05,Wunderground v.1.15,2013-01-12 04:02:00,
2013-01-11 22:03:00,42.9,42.1,29.60,South,188,3.0,5.0,97,0.00,,,0.05,Wunderground v.1.15,2013-01-12 04:03:00,
2013-01-11 22:05:00,42.8,42.0,29.60,South,188,2.0,5.0,97,0.00,,,0.05,Wunderground v.1.15,2013-01-12 04:05:00,
2013-01-11 22:06:00,42.8,42.0,29.61,South,188,2.0,2.0,97,0.00,,,0.05,Wunderground v.1.15,2013-01-12 04:06:00,
2013-01-11 22:08:00,42.8,42.0,29.60,SSW,197,2.0,2.0,97,0.00,,,0.05,Wunderground v.1.15,2013-01-12 04:08:00,
2013-01-11 22:10:00,42.8,42.0,29.61,SSW,196,2.0,2.0,97,0.00,,,0.05,Wunderground v.1.15,2013-01-12 04:10:00,
2013-01-11 22:14:00,42.9,42.1,29.60,South,182,2.0,3.0,97,0.00,,,0.05,Wunderground v.1.15,2013-01-12 04:14:00,
2013-01-11 22:15:00,42.9,42.1,29.60,South,175,2.0,4.0,97,0.00,,,0.05,Wunderground v.1.15,2013-01-12 04:15:00,
2013-01-11 22:17:00,42.8,42.0,29.60,SSW,192,2.0,4.0,97,0.00,,,0.05,Wunderground v.1.15,2013-01-12 04:17:00,
2013-01-11 22:20:00,42.9,42.1,29.60,SSW,197,3.0,6.0,97,0.00,,,0.05,Wunderground v.1.15,2013-01-12 04:20:00,
2013-01-11 22:21:00,42.9,42.1,29.60,South,183,3.0,6.0,97,0.00,,,0.05,Wunderground v.1.15,2013-01-12 04:21:00,
2013-01-11 22:23:00,42.8,42.0,29.60,South,175,3.0,6.0,97,0.00,,,0.05,Wunderground v.1.15,2013-01-12 04:23:00,
2013-01-11 22:25:00,42.8,42.0,29.60,South,188,3.0,6.0,97,0.00,,,0.05,Wunderground v.1.15,2013-01-12 04:25:00,
2013-01-11 22:28:00,42.7,41.9,29.60,South,186,3.0,6.0,97,0.00,,,0.05,Wunderground v.1.15,2013-01-12 04:28:00,
2013-01-11 22:29:00,42.7,41.9,29.60,SSW,192,3.0,6.0,97,0.00,,,0.05,Wunderground v.1.15,2013-01-12 04:29:00,
2013-01-11 22:32:00,42.5,41.7,29.59,South,188,3.0,6.0,97,0.00,,,0.05,Wunderground v.1.15,2013-01-12 04:32:00,
2013-01-11 22:35:00,42.5,41.7,29.60,SSW,202,3.0,6.0,97,0.00,,,0.05,Wunderground v.1.15,2013-01-12 04:35:00,
2013-01-11 22:36:00,42.4,41.6,29.59,SSW,203,3.0,6.0,97,0.00,,,0.05,Wunderground v.1.15,2013-01-12 04:36:00,
2013-01-11 22:37:00,42.4,41.6,29.60,SW,217,3.0,6.0,97,0.00,,,0.05,Wunderground v.1.15,2013-01-12 04:37:00,
2013-01-11 22:42:00,42.4,41.6,29.59,SSW,208,3.0,6.0,97,0.00,,,0.05,Wunderground v.1.15,2013-01-12 04:42:00,
2013-01-11 22:43:00,42.4,41.6,29.59,SSE,150,3.0,6.0,97,0.00,,,0.05,Wunderground v.1.15,2013-01-12 04:43:00,
2013-01-11 22:45:00,42.4,41.6,29.59,SSW,207,3.0,6.0,97,0.00,,,0.05,Wunderground v.1.15,2013-01-12 04:45:00,
2013-01-11 22:46:00,42.4,41.6,29.59,South,173,3.0,3.0,97,0.00,,,0.05,Wunderground v.1.15,2013-01-12 04:46:00,
2013-01-11 22:49:00,42.4,41.6,29.59,SSW,200,3.0,6.0,97,0.00,,,0.05,Wunderground v.1.15,2013-01-12 04:49:00,
2013-01-11 22:50:00,42.5,41.7,29.59,South,184,3.0,6.0,97,0.00,,,0.05,Wunderground v.1.15,2013-01-12 04:50:00,
2013-01-11 22:51:00,42.4,41.6,29.59,South,186,3.0,6.0,97,0.00,,,0.05,Wunderground v.1.15,2013-01-12 04:51:00,
2013-01-11 22:55:00,42.4,41.6,29.59,SW,231,4.0,7.0,97,0.00,,,0.05,Wunderground v.1.15,2013-01-12 04:55:00,
2013-01-11 22:57:00,42.3,41.5,29.59,South,182,4.0,5.0,97,0.00,,,0.05,Wunderground v.1.15,2013-01-12 04:57:00,
2013-01-11 22:58:00,42.4,41.6,29.58,SSW,192,4.0,5.0,97,0.00,,,0.05,Wunderground v.1.15,2013-01-12 04:58:00,
2013-01-11 23:00:00,42.4,41.6,29.58,South,186,4.0,5.0,97,0.00,,,0.05,Wunderground v.1.15,2013-01-12 05:00:00,
2013-01-11 23:02:00,42.3,41.5,29.58,SW,217,4.0,7.0,97,0.00,,,0.05,Wunderground v.1.15,2013-01-12 05:02:00,
2013-01-11 23:04:00,42.3,41.5,29.58,South,180,4.0,7.0,97,0.00,,,0.05,Wunderground v.1.15,2013-01-12 05:04:00,
2013-01-11 23:05:00,42.3,41.5,29.58,South,189,4.0,7.0,97,0.00,,,0.05,Wunderground v.1.15,2013-01-12 05:05:00,
2013-01-11 23:10:00,42.2,41.4,29.57,SW,219,4.0,5.0,97,0.00,,,0.05,Wunderground v.1.15,2013-01-12 05:10:00,
2013-01-11 23:11:00,42.2,41.4,29.57,South,175,4.0,6.0,97,0.00,,,0.05,Wunderground v.1.15,2013-01-12 05:11:00,
2013-01-11 23:12:00,42.2,41.4,29.57,South,173,4.0,8.0,97,0.00,,,0.05,Wunderground v.1.15,2013-01-12 05:12:00,
2013-01-11 23:13:00,42.2,41.4,29.57,SW,217,4.0,8.0,97,0.00,,,0.05,Wunderground v.1.15,2013-01-12 05:13:00,
2013-01-11 23:17:00,42.3,41.5,29.57,SSE,163,4.0,7.0,97,0.00,,,0.05,Wunderground v.1.15,2013-01-12 05:17:00,
2013-01-11 23:18:00,42.2,41.4,29.57,South,173,4.0,7.0,97,0.00,,,0.05,Wunderground v.1.15,2013-01-12 05:18:00,
2013-01-11 23:19:00,42.3,41.5,29.57,SSW,200,5.0,7.0,97,0.00,,,0.05,Wunderground v.1.15,2013-01-12 05:19:00,
2013-01-11 23:24:00,42.2,41.0,29.57,SSW,205,4.0,-999.0,97,-99.99,,,0.05,weatherlink.com 1.10,2013-01-12 05:24:00,
2013-01-11 23:25:00,42.2,41.4,29.57,SSW,199,5.0,7.0,97,0.00,,,0.05,Wunderground v.1.15,2013-01-12 05:25:00,
2013-01-11 23:28:00,42.2,41.4,29.57,SSE,159,4.0,7.0,97,0.00,,,0.05,Wunderground v.1.15,2013-01-12 05:28:00,
2013-01-11 23:29:00,42.2,41.4,29.57,SSW,212,4.0,7.0,97,0.00,,,0.05,Wunderground v.1.15,2013-01-12 05:29:00,
2013-01-11 23:32:00,42.2,41.4,29.57,SSE,162,4.0,7.0,97,0.00,,,0.05,Wunderground v.1.15,2013-01-12 05:32:00,
2013-01-11 23:33:00,42.2,41.4,29.57,SSW,208,4.0,7.0,97,0.00,,,0.05,Wunderground v.1.15,2013-01-12 05:33:00,
2013-01-11 23:34:00,42.3,41.5,29.57,SSW,192,4.0,7.0,97,0.00,,,0.05,Wunderground v.1.15,2013-01-12 05:34:00,
2013-01-11 23:36:00,42.4,41.6,29.57,South,184,5.0,7.0,97,0.00,,,0.05,Wunderground v.1.15,2013-01-12 05:36:00,
2013-01-11 23:38:00,42.3,41.5,29.57,SW,218,5.0,7.0,97,0.00,,,0.05,Wunderground v.1.15,2013-01-12 05:38:00,
2013-01-11 23:39:00,42.2,41.4,29.58,South,180,5.0,7.0,97,0.00,,,0.05,Wunderground v.1.15,2013-01-12 05:39:00,
2013-01-11 23:42:00,42.1,41.3,29.58,South,174,5.0,8.0,97,0.00,,,0.05,Wunderground v.1.15,2013-01-12 05:42:00,
2013-01-11 23:46:00,41.9,41.1,29.57,South,184,5.0,5.0,97,0.00,,,0.05,Wunderground v.1.15,2013-01-12 05:46:00,
2013-01-11 23:48:00,42.0,41.2,29.57,SSW,202,5.0,7.0,97,0.00,,,0.05,Wunderground v.1.15,2013-01-12 05:48:00,
2013-01-11 23:49:00,41.9,41.1,29.57,SSW,196,5.0,7.0,97,0.00,,,0.05,Wunderground v.1.15,2013-01-12 05:49:00,
2013-01-11 23:53:00,41.9,41.1,29.57,South,186,5.0,7.0,97,0.00,,,0.05,Wunderground v.1.15,2013-01-12 05:53:00,
2013-01-11 23:54:00,41.9,41.0,29.57,SSE,153,4.0,-999.0,97,-99.99,,,0.05,weatherlink.com 1.10,2013-01-12 05:54:00,
2013-01-11 23:57:00,41.9,41.1,29.57,SSW,209,5.0,5.0,97,0.00,,,0.05,Wunderground v.1.15,2013-01-12 05:57:00,
2013-01-11 23:58:00,41.8,41.0,29.57,SSW,194,5.0,5.0,97,0.00,,,0.05,Wunderground v.1.15,2013-01-12 05:58:00,